PWSweather.com
Personal Weather Stations
Station Observations
OZIERI
Punta Idda, OzieriIT

Punta IddaOzieriIT

Lat: 40.584142, Lon: 9.007657999999992

Elevation: 1483

Station Type: Lacrosse ws2350

www.ozierimeteo.altervista.com

High Low Average
Temperature 74.8°F23.8°F 59.7°F15.4°F 66.2°F19.0°F
Dew Point 58.8°F14.9°F 51.8°F11.0°F 55.6°F13.1°F
Winds 8.1 mph E13.0 mph E Calm Calm 2.0 mph 3.2 mph
Wind Gusts 18.1 mph29.1 mph -- 3.9 mph6.3 mph
Humidity 82% 52% 70%
Pressure 30.17 in1021.70 in 29.96 in1014.60 in -
Precipitation 0.00 in0.00 in - -
Hour Temp Dew Point Humidity Winds Wind Gusts Pressure Precip Precip Rate Daily Precip Total
01:25 AM 61.0°F16.1°C 53.1°F11.7°C 75% 0.4 mph SE0.6 kmh SE 3.8 mph6.1 kmh 29.99 in1015.6 mb 0.00 in0.0 mm 0.00 in0.0 mm 0.00 in0.0 mm
01:27 AM 61.0°F16.1°C 53.1°F11.7°C 75% 0.2 mph SE0.3 kmh SE -- 29.99 in1015.6 mb 0.00 in0.0 mm 0.00 in0.0 mm 0.00 in0.0 mm
01:30 AM 61.0°F16.1°C 53.1°F11.7°C 75% 0.2 mph NW0.3 kmh NW 0.7 mph1.1 kmh 29.99 in1015.6 mb 0.00 in0.0 mm 0.00 in0.0 mm 0.00 in0.0 mm
01:32 AM 61.0°F16.1°C 53.4°F11.9°C 76% 0.7 mph W1.1 kmh W 2.0 mph3.2 kmh 29.98 in1015.2 mb 0.00 in0.0 mm 0.00 in0.0 mm 0.00 in0.0 mm
01:34 AM 61.0°F16.1°C 53.4°F11.9°C 76% 0.4 mph WSW0.6 kmh WSW 0.7 mph1.1 kmh 29.99 in1015.6 mb 0.00 in0.0 mm 0.00 in0.0 mm 0.00 in0.0 mm
01:37 AM 61.2°F16.2°C 53.6°F12.0°C 76% 0.7 mph NNE1.1 kmh NNE 1.8 mph2.9 kmh 29.98 in1015.2 mb 0.00 in0.0 mm 0.00 in0.0 mm 0.00 in0.0 mm
01:39 AM 61.2°F16.2°C 53.6°F12.0°C 76% 0.4 mph W0.6 kmh W 2.2 mph3.5 kmh 29.99 in1015.6 mb 0.00 in0.0 mm 0.00 in0.0 mm 0.00 in0.0 mm
01:41 AM 61.2°F16.2°C 53.6°F12.0°C 76% 0.2 mph NNE0.3 kmh NNE -- 29.99 in1015.6 mb 0.00 in0.0 mm 0.00 in0.0 mm 0.00 in0.0 mm
01:43 AM 61.2°F16.2°C 53.6°F12.0°C 76% 0.7 mph SE1.1 kmh SE 2.5 mph4.0 kmh 29.99 in1015.6 mb 0.00 in0.0 mm 0.00 in0.0 mm 0.00 in0.0 mm
01:45 AM 61.0°F16.1°C 53.4°F11.9°C 76% 0.4 mph W0.6 kmh W 1.3 mph2.1 kmh 29.98 in1015.2 mb 0.00 in0.0 mm 0.00 in0.0 mm 0.00 in0.0 mm
01:48 AM 61.2°F16.2°C 53.6°F12.0°C 76% 0.4 mph 0.6 kmh 1.3 mph2.1 kmh 29.99 in1015.6 mb 0.00 in0.0 mm 0.00 in0.0 mm 0.00 in0.0 mm
01:50 AM 61.3°F16.3°C 53.8°F12.1°C 76% 0.4 mph S0.6 kmh S 0.9 mph1.4 kmh 29.99 in1015.6 mb 0.00 in0.0 mm 0.00 in0.0 mm 0.00 in0.0 mm
01:52 AM 61.2°F16.2°C 53.6°F12.0°C 76% 0.4 mph ESE0.6 kmh ESE 1.3 mph2.1 kmh 29.99 in1015.6 mb 0.00 in0.0 mm 0.00 in0.0 mm 0.00 in0.0 mm
01:54 AM 61.3°F16.3°C 53.8°F12.1°C 76% 0.4 mph ENE0.6 kmh ENE 1.8 mph2.9 kmh 29.98 in1015.2 mb 0.00 in0.0 mm 0.00 in0.0 mm 0.00 in0.0 mm
01:56 AM 61.5°F16.4°C 53.6°F12.0°C 75% 0.4 mph 0.6 kmh 2.2 mph3.5 kmh 29.99 in1015.6 mb 0.00 in0.0 mm 0.00 in0.0 mm 0.00 in0.0 mm
01:58 AM 61.5°F16.4°C 53.6°F12.0°C 75% 0.2 mph ENE0.3 kmh ENE -- 29.99 in1015.6 mb 0.00 in0.0 mm 0.00 in0.0 mm 0.00 in0.0 mm
02:05 AM 61.5°F16.4°C 53.6°F12.0°C 75% 0.2 mph ESE0.3 kmh ESE -- 29.99 in1015.6 mb 0.00 in0.0 mm 0.00 in0.0 mm 0.00 in0.0 mm
02:08 AM 61.5°F16.4°C 53.6°F12.0°C 75% Calm Calm 0.9 mph1.4 kmh 29.99 in1015.6 mb 0.00 in0.0 mm 0.00 in0.0 mm 0.00 in0.0 mm
02:10 AM 61.5°F16.4°C 53.6°F12.0°C 75% Calm Calm -- 29.99 in1015.6 mb 0.00 in0.0 mm 0.00 in0.0 mm 0.00 in0.0 mm
02:12 AM 61.3°F16.3°C 53.4°F11.9°C 75% 0.2 mph S0.3 kmh S 1.6 mph2.6 kmh 29.99 in1015.6 mb 0.00 in0.0 mm 0.00 in0.0 mm 0.00 in0.0 mm
02:14 AM 61.3°F16.3°C 53.1°F11.7°C 74% 0.2 mph NNW0.3 kmh NNW -- 29.99 in1015.6 mb 0.00 in0.0 mm 0.00 in0.0 mm 0.00 in0.0 mm
02:17 AM 61.2°F16.2°C 52.9°F11.6°C 74% 0.9 mph ENE1.4 kmh ENE 2.5 mph4.0 kmh 29.98 in1015.2 mb 0.00 in0.0 mm 0.00 in0.0 mm 0.00 in0.0 mm
02:19 AM 61.0°F16.1°C 52.7°F11.5°C 74% 0.4 mph NNW0.6 kmh NNW -- 29.98 in1015.2 mb 0.00 in0.0 mm 0.00 in0.0 mm 0.00 in0.0 mm
02:21 AM 61.0°F16.1°C 53.1°F11.7°C 75% 0.4 mph W0.6 kmh W 2.2 mph3.5 kmh 29.98 in1015.2 mb 0.00 in0.0 mm 0.00 in0.0 mm 0.00 in0.0 mm
02:23 AM 61.0°F16.1°C 53.1°F11.7°C 75% 0.4 mph WNW0.6 kmh WNW 0.9 mph1.4 kmh 29.98 in1015.2 mb 0.00 in0.0 mm 0.00 in0.0 mm 0.00 in0.0 mm
02:25 AM 60.6°F15.9°C 52.7°F11.5°C 75% 0.4 mph NNW0.6 kmh NNW 0.9 mph1.4 kmh 29.99 in1015.6 mb 0.00 in0.0 mm 0.00 in0.0 mm 0.00 in0.0 mm
02:27 AM 60.6°F15.9°C 52.7°F11.5°C 75% 0.7 mph WNW1.1 kmh WNW 3.6 mph5.8 kmh 29.98 in1015.2 mb 0.00 in0.0 mm 0.00 in0.0 mm 0.00 in0.0 mm
02:29 AM 60.6°F15.9°C 52.7°F11.5°C 75% 0.4 mph NW0.6 kmh NW -- 29.98 in1015.2 mb 0.00 in0.0 mm 0.00 in0.0 mm 0.00 in0.0 mm
02:31 AM 60.6°F15.9°C 52.7°F11.5°C 75% 0.2 mph NNW0.3 kmh NNW -- 29.98 in1015.2 mb 0.00 in0.0 mm 0.00 in0.0 mm 0.00 in0.0 mm
02:33 AM 60.6°F15.9°C 52.7°F11.5°C 75% 0.2 mph NW0.3 kmh NW -- 29.98 in1015.2 mb 0.00 in0.0 mm 0.00 in0.0 mm 0.00 in0.0 mm
02:36 AM 60.4°F15.8°C 52.5°F11.4°C 75% 0.2 mph ESE0.3 kmh ESE -- 29.98 in1015.2 mb 0.00 in0.0 mm 0.00 in0.0 mm 0.00 in0.0 mm
02:38 AM 60.4°F15.8°C 52.5°F11.4°C 75% 0.2 mph W0.3 kmh W -- 29.98 in1015.2 mb 0.00 in0.0 mm 0.00 in0.0 mm 0.00 in0.0 mm
02:40 AM 60.3°F15.7°C 52.3°F11.3°C 75% 0.2 mph NW0.3 kmh NW -- 29.98 in1015.2 mb 0.00 in0.0 mm 0.00 in0.0 mm 0.00 in0.0 mm
02:42 AM 60.1°F15.6°C 52.2°F11.2°C 75% 0.2 mph SSW0.3 kmh SSW -- 29.98 in1015.2 mb 0.00 in0.0 mm 0.00 in0.0 mm 0.00 in0.0 mm
02:44 AM 60.1°F15.6°C 52.2°F11.2°C 75% 0.2 mph NW0.3 kmh NW -- 29.98 in1015.2 mb 0.00 in0.0 mm 0.00 in0.0 mm 0.00 in0.0 mm
02:46 AM 60.1°F15.6°C 52.2°F11.2°C 75% 0.2 mph 0.3 kmh 0.7 mph1.1 kmh 29.98 in1015.2 mb 0.00 in0.0 mm 0.00 in0.0 mm 0.00 in0.0 mm
02:49 AM 60.1°F15.6°C 52.2°F11.2°C 75% 0.2 mph ENE0.3 kmh ENE -- 29.98 in1015.2 mb 0.00 in0.0 mm 0.00 in0.0 mm 0.00 in0.0 mm
02:51 AM 60.1°F15.6°C 52.5°F11.4°C 76% 0.2 mph NW0.3 kmh NW 1.6 mph2.6 kmh 29.98 in1015.2 mb 0.00 in0.0 mm 0.00 in0.0 mm 0.00 in0.0 mm
02:53 AM 60.3°F15.7°C 52.7°F11.5°C 76% 0.7 mph E1.1 kmh E 3.8 mph6.1 kmh 29.98 in1015.2 mb 0.00 in0.0 mm 0.00 in0.0 mm 0.00 in0.0 mm
02:56 AM 60.1°F15.6°C 52.5°F11.4°C 76% 0.4 mph ENE0.6 kmh ENE 1.3 mph2.1 kmh 29.98 in1015.2 mb 0.00 in0.0 mm 0.00 in0.0 mm 0.00 in0.0 mm
02:58 AM 60.4°F15.8°C 52.9°F11.6°C 76% 0.2 mph NW0.3 kmh NW -- 29.98 in1015.2 mb 0.00 in0.0 mm 0.00 in0.0 mm 0.00 in0.0 mm
03:00 AM 60.4°F15.8°C 52.9°F11.6°C 76% 0.7 mph WSW1.1 kmh WSW 2.2 mph3.5 kmh 29.98 in1015.2 mb 0.00 in0.0 mm 0.00 in0.0 mm 0.00 in0.0 mm
03:02 AM 60.4°F15.8°C 52.9°F11.6°C 76% 0.4 mph NW0.6 kmh NW 1.1 mph1.8 kmh 29.98 in1015.2 mb 0.00 in0.0 mm 0.00 in0.0 mm 0.00 in0.0 mm
03:04 AM 60.4°F15.8°C 52.9°F11.6°C 76% 0.4 mph W0.6 kmh W 0.9 mph1.4 kmh 29.98 in1015.2 mb 0.00 in0.0 mm 0.00 in0.0 mm 0.00 in0.0 mm
03:07 AM 60.1°F15.6°C 52.5°F11.4°C 76% 0.9 mph ESE1.4 kmh ESE 2.5 mph4.0 kmh 29.98 in1015.2 mb 0.00 in0.0 mm 0.00 in0.0 mm 0.00 in0.0 mm
03:09 AM 60.1°F15.6°C 52.5°F11.4°C 76% 0.7 mph W1.1 kmh W 1.1 mph1.8 kmh 29.98 in1015.2 mb 0.00 in0.0 mm 0.00 in0.0 mm 0.00 in0.0 mm
03:11 AM 60.1°F15.6°C 52.5°F11.4°C 76% 0.4 mph ENE0.6 kmh ENE -- 29.98 in1015.2 mb 0.00 in0.0 mm 0.00 in0.0 mm 0.00 in0.0 mm
03:13 AM 60.1°F15.6°C 52.5°F11.4°C 76% 0.4 mph 0.6 kmh 1.8 mph2.9 kmh 29.98 in1015.2 mb 0.00 in0.0 mm 0.00 in0.0 mm 0.00 in0.0 mm
03:15 AM 60.1°F15.6°C 52.5°F11.4°C 76% 0.2 mph 0.3 kmh -- 29.98 in1015.2 mb 0.00 in0.0 mm 0.00 in0.0 mm 0.00 in0.0 mm
03:17 AM 60.1°F15.6°C 52.5°F11.4°C 76% 0.4 mph NNE0.6 kmh NNE 2.0 mph3.2 kmh 29.98 in1015.2 mb 0.00 in0.0 mm 0.00 in0.0 mm 0.00 in0.0 mm
03:19 AM 60.1°F15.6°C 52.5°F11.4°C 76% 0.4 mph NNW0.6 kmh NNW 2.2 mph3.5 kmh 29.98 in1015.2 mb 0.00 in0.0 mm 0.00 in0.0 mm 0.00 in0.0 mm
03:21 AM 59.9°F15.5°C 52.3°F11.3°C 76% 0.7 mph W1.1 kmh W 2.9 mph4.7 kmh 29.98 in1015.2 mb 0.00 in0.0 mm 0.00 in0.0 mm 0.00 in0.0 mm
03:24 AM 60.1°F15.6°C 52.5°F11.4°C 76% 2.0 mph WSW3.2 kmh WSW 6.9 mph11.1 kmh 29.97 in1014.9 mb 0.00 in0.0 mm 0.00 in0.0 mm 0.00 in0.0 mm
03:26 AM 60.1°F15.6°C 52.5°F11.4°C 76% 1.1 mph WNW1.8 kmh WNW 2.0 mph3.2 kmh 29.97 in1014.9 mb 0.00 in0.0 mm 0.00 in0.0 mm 0.00 in0.0 mm
03:28 AM 60.1°F15.6°C 52.5°F11.4°C 76% 1.3 mph SW2.1 kmh SW 3.6 mph5.8 kmh 29.97 in1014.9 mb 0.00 in0.0 mm 0.00 in0.0 mm 0.00 in0.0 mm
03:30 AM 60.1°F15.6°C 52.5°F11.4°C 76% 0.9 mph NNE1.4 kmh NNE 1.8 mph2.9 kmh 29.96 in1014.6 mb 0.00 in0.0 mm 0.00 in0.0 mm 0.00 in0.0 mm
03:32 AM 60.1°F15.6°C 52.5°F11.4°C 76% 0.7 mph NW1.1 kmh NW 2.5 mph4.0 kmh 29.97 in1014.9 mb 0.00 in0.0 mm 0.00 in0.0 mm 0.00 in0.0 mm
03:34 AM 60.1°F15.6°C 52.2°F11.2°C 75% 0.4 mph W0.6 kmh W -- 29.96 in1014.6 mb 0.00 in0.0 mm 0.00 in0.0 mm 0.00 in0.0 mm
03:37 AM 60.1°F15.6°C 52.2°F11.2°C 75% 0.2 mph WNW0.3 kmh WNW -- 29.96 in1014.6 mb 0.00 in0.0 mm 0.00 in0.0 mm 0.00 in0.0 mm
03:39 AM 60.1°F15.6°C 52.2°F11.2°C 75% 0.2 mph SE0.3 kmh SE -- 29.96 in1014.6 mb 0.00 in0.0 mm 0.00 in0.0 mm 0.00 in0.0 mm
03:41 AM 59.9°F15.5°C 52.0°F11.1°C 75% 0.2 mph 0.3 kmh -- 29.96 in1014.6 mb 0.00 in0.0 mm 0.00 in0.0 mm 0.00 in0.0 mm
03:43 AM 60.1°F15.6°C 52.2°F11.2°C 75% 0.4 mph 0.6 kmh 2.9 mph4.7 kmh 29.96 in1014.6 mb 0.00 in0.0 mm 0.00 in0.0 mm 0.00 in0.0 mm
03:45 AM 60.1°F15.6°C 52.2°F11.2°C 75% 0.2 mph NW0.3 kmh NW -- 29.96 in1014.6 mb 0.00 in0.0 mm 0.00 in0.0 mm 0.00 in0.0 mm
03:48 AM 60.1°F15.6°C 52.2°F11.2°C 75% 0.2 mph 0.3 kmh -- 29.97 in1014.9 mb 0.00 in0.0 mm 0.00 in0.0 mm 0.00 in0.0 mm
03:50 AM 60.1°F15.6°C 52.2°F11.2°C 75% 0.2 mph WNW0.3 kmh WNW 0.9 mph1.4 kmh 29.97 in1014.9 mb 0.00 in0.0 mm 0.00 in0.0 mm 0.00 in0.0 mm
03:52 AM 60.1°F15.6°C 52.2°F11.2°C 75% 0.2 mph 0.3 kmh -- 29.96 in1014.6 mb 0.00 in0.0 mm 0.00 in0.0 mm 0.00 in0.0 mm
03:54 AM 60.1°F15.6°C 52.2°F11.2°C 75% 0.2 mph WNW0.3 kmh WNW -- 29.96 in1014.6 mb 0.00 in0.0 mm 0.00 in0.0 mm 0.00 in0.0 mm
03:57 AM 60.1°F15.6°C 52.2°F11.2°C 75% 0.2 mph NNW0.3 kmh NNW -- 29.96 in1014.6 mb 0.00 in0.0 mm 0.00 in0.0 mm 0.00 in0.0 mm
03:59 AM 59.9°F15.5°C 52.0°F11.1°C 75% 0.4 mph WNW0.6 kmh WNW 1.8 mph2.9 kmh 29.96 in1014.6 mb 0.00 in0.0 mm 0.00 in0.0 mm 0.00 in0.0 mm
04:01 AM 59.9°F15.5°C 52.0°F11.1°C 75% 0.2 mph ESE0.3 kmh ESE -- 29.96 in1014.6 mb 0.00 in0.0 mm 0.00 in0.0 mm 0.00 in0.0 mm
04:03 AM 59.7°F15.4°C 51.8°F11.0°C 75% 0.2 mph NNW0.3 kmh NNW -- 29.96 in1014.6 mb 0.00 in0.0 mm 0.00 in0.0 mm 0.00 in0.0 mm
04:05 AM 59.7°F15.4°C 51.8°F11.0°C 75% 0.2 mph NW0.3 kmh NW -- 29.96 in1014.6 mb 0.00 in0.0 mm 0.00 in0.0 mm 0.00 in0.0 mm
04:08 AM 59.9°F15.5°C 52.0°F11.1°C 75% 0.4 mph NW0.6 kmh NW 2.5 mph4.0 kmh 29.96 in1014.6 mb 0.00 in0.0 mm 0.00 in0.0 mm 0.00 in0.0 mm
04:10 AM 60.1°F15.6°C 52.5°F11.4°C 76% 1.1 mph SSE1.8 kmh SSE 6.3 mph10.1 kmh 29.96 in1014.6 mb 0.00 in0.0 mm 0.00 in0.0 mm 0.00 in0.0 mm
04:12 AM 60.4°F15.8°C 52.5°F11.4°C 75% 0.9 mph W1.4 kmh W 1.3 mph2.1 kmh 29.96 in1014.6 mb 0.00 in0.0 mm 0.00 in0.0 mm 0.00 in0.0 mm
04:14 AM 60.4°F15.8°C 52.5°F11.4°C 75% 0.7 mph NW1.1 kmh NW 0.9 mph1.4 kmh 29.96 in1014.6 mb 0.00 in0.0 mm 0.00 in0.0 mm 0.00 in0.0 mm
04:16 AM 60.4°F15.8°C 52.5°F11.4°C 75% 1.1 mph WSW1.8 kmh WSW 4.0 mph6.4 kmh 29.96 in1014.6 mb 0.00 in0.0 mm 0.00 in0.0 mm 0.00 in0.0 mm
04:18 AM 60.4°F15.8°C 52.5°F11.4°C 75% 1.1 mph W1.8 kmh W 2.2 mph3.5 kmh 29.96 in1014.6 mb 0.00 in0.0 mm 0.00 in0.0 mm 0.00 in0.0 mm
04:20 AM 60.6°F15.9°C 53.1°F11.7°C 76% 1.1 mph W1.8 kmh W 3.4 mph5.5 kmh 29.96 in1014.6 mb 0.00 in0.0 mm 0.00 in0.0 mm 0.00 in0.0 mm
04:23 AM 60.6°F15.9°C 53.1°F11.7°C 76% 0.7 mph W1.1 kmh W 0.9 mph1.4 kmh 29.96 in1014.6 mb 0.00 in0.0 mm 0.00 in0.0 mm 0.00 in0.0 mm
04:25 AM 60.6°F15.9°C 53.1°F11.7°C 76% 0.7 mph WNW1.1 kmh WNW 1.8 mph2.9 kmh 29.96 in1014.6 mb 0.00 in0.0 mm 0.00 in0.0 mm 0.00 in0.0 mm
04:27 AM 60.6°F15.9°C 53.1°F11.7°C 76% 1.1 mph NE1.8 kmh NE 2.7 mph4.3 kmh 29.96 in1014.6 mb 0.00 in0.0 mm 0.00 in0.0 mm 0.00 in0.0 mm
04:30 AM 60.6°F15.9°C 53.1°F11.7°C 76% 0.7 mph E1.1 kmh E -- 29.97 in1014.9 mb 0.00 in0.0 mm 0.00 in0.0 mm 0.00 in0.0 mm
04:32 AM 60.6°F15.9°C 53.1°F11.7°C 76% 0.4 mph NNW0.6 kmh NNW 1.3 mph2.1 kmh 29.97 in1014.9 mb 0.00 in0.0 mm 0.00 in0.0 mm 0.00 in0.0 mm
04:34 AM 60.6°F15.9°C 53.4°F11.9°C 77% 0.7 mph NNE1.1 kmh NNE 1.6 mph2.6 kmh 29.97 in1014.9 mb 0.00 in0.0 mm 0.00 in0.0 mm 0.00 in0.0 mm
04:36 AM 60.6°F15.9°C 53.4°F11.9°C 77% 0.4 mph SSW0.6 kmh SSW 0.9 mph1.4 kmh 29.97 in1014.9 mb 0.00 in0.0 mm 0.00 in0.0 mm 0.00 in0.0 mm
04:38 AM 60.6°F15.9°C 53.4°F11.9°C 77% 0.9 mph NNW1.4 kmh NNW 3.1 mph5.0 kmh 29.97 in1014.9 mb 0.00 in0.0 mm 0.00 in0.0 mm 0.00 in0.0 mm
04:41 AM 60.8°F16.0°C 54.0°F12.2°C 78% 0.9 mph NW1.4 kmh NW 4.7 mph7.6 kmh 29.98 in1015.2 mb 0.00 in0.0 mm 0.00 in0.0 mm 0.00 in0.0 mm
04:43 AM 60.6°F15.9°C 53.8°F12.1°C 78% 0.9 mph ESE1.4 kmh ESE 3.1 mph5.0 kmh 29.97 in1014.9 mb 0.00 in0.0 mm 0.00 in0.0 mm 0.00 in0.0 mm
04:45 AM 60.6°F15.9°C 53.8°F12.1°C 78% 0.7 mph ESE1.1 kmh ESE 3.1 mph5.0 kmh 29.98 in1015.2 mb 0.00 in0.0 mm 0.00 in0.0 mm 0.00 in0.0 mm
04:47 AM 60.4°F15.8°C 53.6°F12.0°C 78% 0.9 mph W1.4 kmh W 2.9 mph4.7 kmh 29.98 in1015.2 mb 0.00 in0.0 mm 0.00 in0.0 mm 0.00 in0.0 mm
04:49 AM 60.4°F15.8°C 54.0°F12.2°C 79% 1.1 mph W1.8 kmh W 2.9 mph4.7 kmh 29.98 in1015.2 mb 0.00 in0.0 mm 0.00 in0.0 mm 0.00 in0.0 mm
04:52 AM 60.4°F15.8°C 54.0°F12.2°C 79% 0.7 mph W1.1 kmh W -- 29.98 in1015.2 mb 0.00 in0.0 mm 0.00 in0.0 mm 0.00 in0.0 mm
04:54 AM 60.4°F15.8°C 54.0°F12.2°C 79% 1.1 mph W1.8 kmh W 2.5 mph4.0 kmh 29.98 in1015.2 mb 0.00 in0.0 mm 0.00 in0.0 mm 0.00 in0.0 mm
04:56 AM 60.6°F15.9°C 54.5°F12.5°C 80% 1.6 mph W2.6 kmh W 5.4 mph8.7 kmh 29.98 in1015.2 mb 0.00 in0.0 mm 0.00 in0.0 mm 0.00 in0.0 mm
04:58 AM 60.4°F15.8°C 54.3°F12.4°C 80% 1.1 mph NW1.8 kmh NW 2.2 mph3.5 kmh 29.98 in1015.2 mb 0.00 in0.0 mm 0.00 in0.0 mm 0.00 in0.0 mm
05:01 AM 60.4°F15.8°C 54.3°F12.4°C 80% 0.7 mph SW1.1 kmh SW -- 29.98 in1015.2 mb 0.00 in0.0 mm 0.00 in0.0 mm 0.00 in0.0 mm
05:03 AM 60.4°F15.8°C 54.3°F12.4°C 80% 0.4 mph WSW0.6 kmh WSW -- 29.98 in1015.2 mb 0.00 in0.0 mm 0.00 in0.0 mm 0.00 in0.0 mm
05:05 AM 60.4°F15.8°C 54.3°F12.4°C 80% 0.2 mph SSW0.3 kmh SSW -- 29.99 in1015.6 mb 0.00 in0.0 mm 0.00 in0.0 mm 0.00 in0.0 mm
05:07 AM 60.4°F15.8°C 54.3°F12.4°C 80% 0.2 mph W0.3 kmh W -- 29.99 in1015.6 mb 0.00 in0.0 mm 0.00 in0.0 mm 0.00 in0.0 mm
05:09 AM 60.4°F15.8°C 54.3°F12.4°C 80% 0.4 mph S0.6 kmh S 2.2 mph3.5 kmh 29.98 in1015.2 mb 0.00 in0.0 mm 0.00 in0.0 mm 0.00 in0.0 mm
05:11 AM 60.4°F15.8°C 54.3°F12.4°C 80% 0.4 mph ENE0.6 kmh ENE 0.7 mph1.1 kmh 29.98 in1015.2 mb 0.00 in0.0 mm 0.00 in0.0 mm 0.00 in0.0 mm
05:13 AM 60.3°F15.7°C 54.1°F12.3°C 80% 1.3 mph WSW2.1 kmh WSW 3.1 mph5.0 kmh 29.99 in1015.6 mb 0.00 in0.0 mm 0.00 in0.0 mm 0.00 in0.0 mm
05:15 AM 60.4°F15.8°C 54.3°F12.4°C 80% 1.3 mph WSW2.1 kmh WSW 2.2 mph3.5 kmh 29.99 in1015.6 mb 0.00 in0.0 mm 0.00 in0.0 mm 0.00 in0.0 mm
05:18 AM 60.6°F15.9°C 54.7°F12.6°C 81% 1.8 mph W2.9 kmh W 2.9 mph4.7 kmh 29.99 in1015.6 mb 0.00 in0.0 mm 0.00 in0.0 mm 0.00 in0.0 mm
05:20 AM 60.6°F15.9°C 54.7°F12.6°C 81% 1.3 mph W2.1 kmh W 2.0 mph3.2 kmh 29.99 in1015.6 mb 0.00 in0.0 mm 0.00 in0.0 mm 0.00 in0.0 mm
05:22 AM 60.6°F15.9°C 54.7°F12.6°C 81% 0.9 mph W1.4 kmh W 1.3 mph2.1 kmh 29.99 in1015.6 mb 0.00 in0.0 mm 0.00 in0.0 mm 0.00 in0.0 mm
05:24 AM 60.6°F15.9°C 54.7°F12.6°C 81% 0.4 mph WSW0.6 kmh WSW -- 29.99 in1015.6 mb 0.00 in0.0 mm 0.00 in0.0 mm 0.00 in0.0 mm
05:26 AM 60.6°F15.9°C 54.7°F12.6°C 81% 0.2 mph W0.3 kmh W -- 29.99 in1015.6 mb 0.00 in0.0 mm 0.00 in0.0 mm 0.00 in0.0 mm
05:28 AM 60.6°F15.9°C 54.7°F12.6°C 81% 0.2 mph W0.3 kmh W -- 29.99 in1015.6 mb 0.00 in0.0 mm 0.00 in0.0 mm 0.00 in0.0 mm
05:31 AM 60.6°F15.9°C 54.7°F12.6°C 81% 0.2 mph NNW0.3 kmh NNW -- 29.99 in1015.6 mb 0.00 in0.0 mm 0.00 in0.0 mm 0.00 in0.0 mm
05:33 AM 60.6°F15.9°C 54.7°F12.6°C 81% 0.4 mph 0.6 kmh 2.0 mph3.2 kmh 29.99 in1015.6 mb 0.00 in0.0 mm 0.00 in0.0 mm 0.00 in0.0 mm
05:35 AM 60.4°F15.8°C 54.5°F12.5°C 81% 0.2 mph SSE0.3 kmh SSE 0.9 mph1.4 kmh 29.99 in1015.6 mb 0.00 in0.0 mm 0.00 in0.0 mm 0.00 in0.0 mm
05:37 AM 60.4°F15.8°C 54.5°F12.5°C 81% 0.2 mph ESE0.3 kmh ESE -- 29.99 in1015.6 mb 0.00 in0.0 mm 0.00 in0.0 mm 0.00 in0.0 mm
05:40 AM 60.4°F15.8°C 54.5°F12.5°C 81% 0.2 mph E0.3 kmh E -- 29.99 in1015.6 mb 0.00 in0.0 mm 0.00 in0.0 mm 0.00 in0.0 mm
05:42 AM 60.4°F15.8°C 54.5°F12.5°C 81% 0.4 mph W0.6 kmh W 1.1 mph1.8 kmh 29.99 in1015.6 mb 0.00 in0.0 mm 0.00 in0.0 mm 0.00 in0.0 mm
05:44 AM 60.6°F15.9°C 54.7°F12.6°C 81% 0.2 mph W0.3 kmh W -- 29.99 in1015.6 mb 0.00 in0.0 mm 0.00 in0.0 mm 0.00 in0.0 mm
05:46 AM 60.6°F15.9°C 54.7°F12.6°C 81% 0.2 mph W0.3 kmh W -- 30.00 in1015.9 mb 0.00 in0.0 mm 0.00 in0.0 mm 0.00 in0.0 mm
05:48 AM 60.6°F15.9°C 54.7°F12.6°C 81% 0.4 mph ESE0.6 kmh ESE 2.5 mph4.0 kmh 29.99 in1015.6 mb 0.00 in0.0 mm 0.00 in0.0 mm 0.00 in0.0 mm
05:51 AM 60.6°F15.9°C 55.0°F12.8°C 82% 0.4 mph S0.6 kmh S 1.3 mph2.1 kmh 30.00 in1015.9 mb 0.00 in0.0 mm 0.00 in0.0 mm 0.00 in0.0 mm
05:53 AM 60.6°F15.9°C 55.0°F12.8°C 82% 0.2 mph W0.3 kmh W -- 29.99 in1015.6 mb 0.00 in0.0 mm 0.00 in0.0 mm 0.00 in0.0 mm
05:55 AM 60.6°F15.9°C 54.7°F12.6°C 81% 0.2 mph W0.3 kmh W -- 29.99 in1015.6 mb 0.00 in0.0 mm 0.00 in0.0 mm 0.00 in0.0 mm
05:57 AM 60.4°F15.8°C 54.9°F12.7°C 82% 0.2 mph NW0.3 kmh NW -- 30.00 in1015.9 mb 0.00 in0.0 mm 0.00 in0.0 mm 0.00 in0.0 mm
05:59 AM 60.4°F15.8°C 54.9°F12.7°C 82% 0.4 mph WNW0.6 kmh WNW 2.0 mph3.2 kmh 29.99 in1015.6 mb 0.00 in0.0 mm 0.00 in0.0 mm 0.00 in0.0 mm
06:01 AM 60.6°F15.9°C 55.0°F12.8°C 82% 0.2 mph 0.3 kmh -- 30.00 in1015.9 mb 0.00 in0.0 mm 0.00 in0.0 mm 0.00 in0.0 mm
06:04 AM 60.4°F15.8°C 54.9°F12.7°C 82% 0.2 mph NNW0.3 kmh NNW 1.8 mph2.9 kmh 29.99 in1015.6 mb 0.00 in0.0 mm 0.00 in0.0 mm 0.00 in0.0 mm
06:06 AM 60.4°F15.8°C 54.9°F12.7°C 82% 0.2 mph ENE0.3 kmh ENE -- 30.00 in1015.9 mb 0.00 in0.0 mm 0.00 in0.0 mm 0.00 in0.0 mm
06:08 AM 60.3°F15.7°C 54.7°F12.6°C 82% 0.4 mph NW0.6 kmh NW 1.6 mph2.6 kmh 29.99 in1015.6 mb 0.00 in0.0 mm 0.00 in0.0 mm 0.00 in0.0 mm
06:11 AM 60.1°F15.6°C 54.5°F12.5°C 82% 0.4 mph E0.6 kmh E 3.1 mph5.0 kmh 29.99 in1015.6 mb 0.00 in0.0 mm 0.00 in0.0 mm 0.00 in0.0 mm
06:13 AM 60.1°F15.6°C 54.5°F12.5°C 82% 0.4 mph S0.6 kmh S 1.3 mph2.1 kmh 30.00 in1015.9 mb 0.00 in0.0 mm 0.00 in0.0 mm 0.00 in0.0 mm
06:15 AM 60.1°F15.6°C 54.5°F12.5°C 82% 0.2 mph SE0.3 kmh SE 0.7 mph1.1 kmh 29.99 in1015.6 mb 0.00 in0.0 mm 0.00 in0.0 mm 0.00 in0.0 mm
06:17 AM 60.1°F15.6°C 54.5°F12.5°C 82% 0.2 mph SSW0.3 kmh SSW -- 29.99 in1015.6 mb 0.00 in0.0 mm 0.00 in0.0 mm 0.00 in0.0 mm
06:20 AM 60.1°F15.6°C 54.5°F12.5°C 82% 0.2 mph SE0.3 kmh SE 0.9 mph1.4 kmh 29.99 in1015.6 mb 0.00 in0.0 mm 0.00 in0.0 mm 0.00 in0.0 mm
06:22 AM 60.1°F15.6°C 54.5°F12.5°C 82% 0.4 mph SSW0.6 kmh SSW 2.9 mph4.7 kmh 29.99 in1015.6 mb 0.00 in0.0 mm 0.00 in0.0 mm 0.00 in0.0 mm
06:24 AM 60.1°F15.6°C 54.5°F12.5°C 82% 0.9 mph NW1.4 kmh NW 2.2 mph3.5 kmh 29.99 in1015.6 mb 0.00 in0.0 mm 0.00 in0.0 mm 0.00 in0.0 mm
06:26 AM 60.4°F15.8°C 54.9°F12.7°C 82% 0.9 mph NW1.4 kmh NW 2.0 mph3.2 kmh 29.99 in1015.6 mb 0.00 in0.0 mm 0.00 in0.0 mm 0.00 in0.0 mm
06:29 AM 60.4°F15.8°C 54.9°F12.7°C 82% 0.7 mph S1.1 kmh S 2.9 mph4.7 kmh 29.99 in1015.6 mb 0.00 in0.0 mm 0.00 in0.0 mm 0.00 in0.0 mm
06:31 AM 60.4°F15.8°C 54.9°F12.7°C 82% 0.4 mph NE0.6 kmh NE -- 29.99 in1015.6 mb 0.00 in0.0 mm 0.00 in0.0 mm 0.00 in0.0 mm
06:33 AM 60.4°F15.8°C 54.9°F12.7°C 82% 0.2 mph NNW0.3 kmh NNW -- 29.99 in1015.6 mb 0.00 in0.0 mm 0.00 in0.0 mm 0.00 in0.0 mm
06:35 AM 60.4°F15.8°C 54.9°F12.7°C 82% 0.4 mph W0.6 kmh W 1.1 mph1.8 kmh 29.99 in1015.6 mb 0.00 in0.0 mm 0.00 in0.0 mm 0.00 in0.0 mm
06:38 AM 60.4°F15.8°C 54.9°F12.7°C 82% 0.7 mph W1.1 kmh W 1.6 mph2.6 kmh 29.99 in1015.6 mb 0.00 in0.0 mm 0.00 in0.0 mm 0.00 in0.0 mm
06:40 AM 60.4°F15.8°C 54.9°F12.7°C 82% 0.9 mph S1.4 kmh S 1.8 mph2.9 kmh 30.00 in1015.9 mb 0.00 in0.0 mm 0.00 in0.0 mm 0.00 in0.0 mm
06:42 AM 60.6°F15.9°C 55.0°F12.8°C 82% 0.7 mph NE1.1 kmh NE 1.1 mph1.8 kmh 30.00 in1015.9 mb 0.00 in0.0 mm 0.00 in0.0 mm 0.00 in0.0 mm
06:44 AM 60.6°F15.9°C 55.0°F12.8°C 82% 0.7 mph 1.1 kmh 3.1 mph5.0 kmh 30.00 in1015.9 mb 0.00 in0.0 mm 0.00 in0.0 mm 0.00 in0.0 mm
06:46 AM 61.0°F16.1°C 55.4°F13.0°C 82% 0.7 mph NW1.1 kmh NW 1.8 mph2.9 kmh 30.00 in1015.9 mb 0.00 in0.0 mm 0.00 in0.0 mm 0.00 in0.0 mm
06:49 AM 61.0°F16.1°C 55.0°F12.8°C 81% 0.4 mph NNE0.6 kmh NNE 1.8 mph2.9 kmh 30.00 in1015.9 mb 0.00 in0.0 mm 0.00 in0.0 mm 0.00 in0.0 mm
06:51 AM 61.2°F16.2°C 55.2°F12.9°C 81% 0.4 mph ENE0.6 kmh ENE 2.9 mph4.7 kmh 30.01 in1016.3 mb 0.00 in0.0 mm 0.00 in0.0 mm 0.00 in0.0 mm
06:53 AM 61.3°F16.3°C 55.4°F13.0°C 81% 0.7 mph WNW1.1 kmh WNW 2.0 mph3.2 kmh 30.01 in1016.3 mb 0.00 in0.0 mm 0.00 in0.0 mm 0.00 in0.0 mm
06:55 AM 61.3°F16.3°C 55.4°F13.0°C 81% 0.9 mph SSE1.4 kmh SSE 3.1 mph5.0 kmh 30.01 in1016.3 mb 0.00 in0.0 mm 0.00 in0.0 mm 0.00 in0.0 mm
06:58 AM 61.5°F16.4°C 55.6°F13.1°C 81% 1.3 mph E2.1 kmh E 4.3 mph6.9 kmh 30.01 in1016.3 mb 0.00 in0.0 mm 0.00 in0.0 mm 0.00 in0.0 mm
07:00 AM 61.7°F16.5°C 55.8°F13.2°C 81% 1.1 mph NNW1.8 kmh NNW 2.0 mph3.2 kmh 30.01 in1016.3 mb 0.00 in0.0 mm 0.00 in0.0 mm 0.00 in0.0 mm
07:02 AM 61.7°F16.5°C 55.4°F13.0°C 80% 1.3 mph WNW2.1 kmh WNW 2.7 mph4.3 kmh 30.01 in1016.3 mb 0.00 in0.0 mm 0.00 in0.0 mm 0.00 in0.0 mm
07:04 AM 61.5°F16.4°C 55.2°F12.9°C 80% 0.7 mph SSW1.1 kmh SSW -- 30.01 in1016.3 mb 0.00 in0.0 mm 0.00 in0.0 mm 0.00 in0.0 mm
07:06 AM 61.5°F16.4°C 55.2°F12.9°C 80% 0.4 mph NNW0.6 kmh NNW -- 30.02 in1016.6 mb 0.00 in0.0 mm 0.00 in0.0 mm 0.00 in0.0 mm
07:09 AM 61.3°F16.3°C 55.0°F12.8°C 80% 0.2 mph W0.3 kmh W -- 30.02 in1016.6 mb 0.00 in0.0 mm 0.00 in0.0 mm 0.00 in0.0 mm
07:11 AM 61.3°F16.3°C 55.0°F12.8°C 80% 0.2 mph WSW0.3 kmh WSW -- 30.02 in1016.6 mb 0.00 in0.0 mm 0.00 in0.0 mm 0.00 in0.0 mm
07:13 AM 61.3°F16.3°C 55.0°F12.8°C 80% 0.4 mph NE0.6 kmh NE 2.7 mph4.3 kmh 30.02 in1016.6 mb 0.00 in0.0 mm 0.00 in0.0 mm 0.00 in0.0 mm
07:15 AM 61.2°F16.2°C 54.9°F12.7°C 80% 0.2 mph SSE0.3 kmh SSE -- 30.02 in1016.6 mb 0.00 in0.0 mm 0.00 in0.0 mm 0.00 in0.0 mm
07:17 AM 61.0°F16.1°C 54.7°F12.6°C 80% 0.2 mph WSW0.3 kmh WSW -- 30.02 in1016.6 mb 0.00 in0.0 mm 0.00 in0.0 mm 0.00 in0.0 mm
07:19 AM 61.0°F16.1°C 54.7°F12.6°C 80% 0.2 mph W0.3 kmh W -- 30.03 in1016.9 mb 0.00 in0.0 mm 0.00 in0.0 mm 0.00 in0.0 mm
07:21 AM 61.0°F16.1°C 54.7°F12.6°C 80% 0.2 mph SSW0.3 kmh SSW -- 30.03 in1016.9 mb 0.00 in0.0 mm 0.00 in0.0 mm 0.00 in0.0 mm
07:24 AM 61.0°F16.1°C 54.7°F12.6°C 80% 0.2 mph NNE0.3 kmh NNE -- 30.03 in1016.9 mb 0.00 in0.0 mm 0.00 in0.0 mm 0.00 in0.0 mm
07:26 AM 61.0°F16.1°C 54.7°F12.6°C 80% 0.2 mph NW0.3 kmh NW -- 30.03 in1016.9 mb 0.00 in0.0 mm 0.00 in0.0 mm 0.00 in0.0 mm
07:28 AM 61.0°F16.1°C 55.0°F12.8°C 81% 0.2 mph 0.3 kmh -- 30.03 in1016.9 mb 0.00 in0.0 mm 0.00 in0.0 mm 0.00 in0.0 mm
07:31 AM 61.2°F16.2°C 55.2°F12.9°C 81% 0.2 mph ESE0.3 kmh ESE -- 30.03 in1016.9 mb 0.00 in0.0 mm 0.00 in0.0 mm 0.00 in0.0 mm
07:33 AM 61.3°F16.3°C 55.4°F13.0°C 81% 0.4 mph NW0.6 kmh NW 2.0 mph3.2 kmh 30.03 in1016.9 mb 0.00 in0.0 mm 0.00 in0.0 mm 0.00 in0.0 mm
07:35 AM 61.5°F16.4°C 55.6°F13.1°C 81% 0.4 mph SE0.6 kmh SE 1.3 mph2.1 kmh 30.03 in1016.9 mb 0.00 in0.0 mm 0.00 in0.0 mm 0.00 in0.0 mm
07:37 AM 61.7°F16.5°C 55.8°F13.2°C 81% 0.2 mph NNE0.3 kmh NNE -- 30.03 in1016.9 mb 0.00 in0.0 mm 0.00 in0.0 mm 0.00 in0.0 mm
07:40 AM 61.9°F16.6°C 55.9°F13.3°C 81% 0.2 mph 0.3 kmh -- 30.03 in1016.9 mb 0.00 in0.0 mm 0.00 in0.0 mm 0.00 in0.0 mm
07:42 AM 62.1°F16.7°C 56.1°F13.4°C 81% 0.2 mph SE0.3 kmh SE -- 30.03 in1016.9 mb 0.00 in0.0 mm 0.00 in0.0 mm 0.00 in0.0 mm
07:44 AM 62.4°F16.9°C 56.5°F13.6°C 81% 0.2 mph S0.3 kmh S 0.7 mph1.1 kmh 30.03 in1016.9 mb 0.00 in0.0 mm 0.00 in0.0 mm 0.00 in0.0 mm
07:46 AM 62.4°F16.9°C 56.5°F13.6°C 81% 0.2 mph WSW0.3 kmh WSW -- 30.03 in1016.9 mb 0.00 in0.0 mm 0.00 in0.0 mm 0.00 in0.0 mm
07:49 AM 62.8°F17.1°C 56.8°F13.8°C 81% 0.2 mph WSW0.3 kmh WSW -- 30.04 in1017.3 mb 0.00 in0.0 mm 0.00 in0.0 mm 0.00 in0.0 mm
07:51 AM 63.0°F17.2°C 56.7°F13.7°C 80% 0.2 mph SE0.3 kmh SE -- 30.03 in1016.9 mb 0.00 in0.0 mm 0.00 in0.0 mm 0.00 in0.0 mm
07:53 AM 63.1°F17.3°C 56.8°F13.8°C 80% 0.2 mph ENE0.3 kmh ENE 0.7 mph1.1 kmh 30.04 in1017.3 mb 0.00 in0.0 mm 0.00 in0.0 mm 0.00 in0.0 mm
07:55 AM 63.5°F17.5°C 57.2°F14.0°C 80% 0.2 mph SE0.3 kmh SE 0.9 mph1.4 kmh 30.04 in1017.3 mb 0.00 in0.0 mm 0.00 in0.0 mm 0.00 in0.0 mm
07:58 AM 63.9°F17.7°C 57.6°F14.2°C 80% 0.2 mph NE0.3 kmh NE 1.3 mph2.1 kmh 30.04 in1017.3 mb 0.00 in0.0 mm 0.00 in0.0 mm 0.00 in0.0 mm
08:00 AM 64.2°F17.9°C 57.9°F14.4°C 80% 0.7 mph E1.1 kmh E 3.4 mph5.5 kmh 30.04 in1017.3 mb 0.00 in0.0 mm 0.00 in0.0 mm 0.00 in0.0 mm
08:02 AM 64.2°F17.9°C 57.6°F14.2°C 79% 1.6 mph E2.6 kmh E 4.7 mph7.6 kmh 30.04 in1017.3 mb 0.00 in0.0 mm 0.00 in0.0 mm 0.00 in0.0 mm
08:04 AM 64.6°F18.1°C 57.9°F14.4°C 79% 1.8 mph ENE2.9 kmh ENE 3.1 mph5.0 kmh 30.05 in1017.6 mb 0.00 in0.0 mm 0.00 in0.0 mm 0.00 in0.0 mm
08:07 AM 64.9°F18.3°C 58.3°F14.6°C 79% 1.1 mph WNW1.8 kmh WNW 3.6 mph5.8 kmh 30.05 in1017.6 mb 0.00 in0.0 mm 0.00 in0.0 mm 0.00 in0.0 mm
08:09 AM 65.1°F18.4°C 58.1°F14.5°C 78% 0.9 mph ESE1.4 kmh ESE 2.2 mph3.5 kmh 30.05 in1017.6 mb 0.00 in0.0 mm 0.00 in0.0 mm 0.00 in0.0 mm
08:11 AM 65.1°F18.4°C 58.1°F14.5°C 78% 0.9 mph ENE1.4 kmh ENE 1.8 mph2.9 kmh 30.05 in1017.6 mb 0.00 in0.0 mm 0.00 in0.0 mm 0.00 in0.0 mm
08:13 AM 64.9°F18.3°C 57.6°F14.2°C 77% 1.3 mph NW2.1 kmh NW 5.4 mph8.7 kmh 30.05 in1017.6 mb 0.00 in0.0 mm 0.00 in0.0 mm 0.00 in0.0 mm
08:16 AM 64.6°F18.1°C 57.2°F14.0°C 77% 0.9 mph 1.4 kmh 1.3 mph2.1 kmh 30.05 in1017.6 mb 0.00 in0.0 mm 0.00 in0.0 mm 0.00 in0.0 mm
08:18 AM 64.6°F18.1°C 57.2°F14.0°C 77% 0.7 mph S1.1 kmh S 1.3 mph2.1 kmh 30.05 in1017.6 mb 0.00 in0.0 mm 0.00 in0.0 mm 0.00 in0.0 mm
08:20 AM 64.6°F18.1°C 57.2°F14.0°C 77% 0.4 mph 0.6 kmh -- 30.05 in1017.6 mb 0.00 in0.0 mm 0.00 in0.0 mm 0.00 in0.0 mm
08:22 AM 64.6°F18.1°C 57.2°F14.0°C 77% 0.4 mph SE0.6 kmh SE 2.0 mph3.2 kmh 30.05 in1017.6 mb 0.00 in0.0 mm 0.00 in0.0 mm 0.00 in0.0 mm
08:25 AM 64.4°F18.0°C 57.0°F13.9°C 77% 0.2 mph ENE0.3 kmh ENE -- 30.05 in1017.6 mb 0.00 in0.0 mm 0.00 in0.0 mm 0.00 in0.0 mm
08:27 AM 64.2°F17.9°C 56.8°F13.8°C 77% 0.2 mph NNE0.3 kmh NNE -- 30.05 in1017.6 mb 0.00 in0.0 mm 0.00 in0.0 mm 0.00 in0.0 mm
08:29 AM 64.2°F17.9°C 56.8°F13.8°C 77% 0.2 mph 0.3 kmh -- 30.05 in1017.6 mb 0.00 in0.0 mm 0.00 in0.0 mm 0.00 in0.0 mm
08:32 AM 64.2°F17.9°C 56.8°F13.8°C 77% 0.2 mph ENE0.3 kmh ENE -- 30.06 in1017.9 mb 0.00 in0.0 mm 0.00 in0.0 mm 0.00 in0.0 mm
08:34 AM 64.2°F17.9°C 56.8°F13.8°C 77% 0.2 mph ESE0.3 kmh ESE -- 30.05 in1017.6 mb 0.00 in0.0 mm 0.00 in0.0 mm 0.00 in0.0 mm
08:36 AM 64.0°F17.8°C 56.7°F13.7°C 77% 0.4 mph ESE0.6 kmh ESE 2.9 mph4.7 kmh 30.05 in1017.6 mb 0.00 in0.0 mm 0.00 in0.0 mm 0.00 in0.0 mm
08:38 AM 64.2°F17.9°C 56.8°F13.8°C 77% 0.4 mph NNW0.6 kmh NNW 1.8 mph2.9 kmh 30.05 in1017.6 mb 0.00 in0.0 mm 0.00 in0.0 mm 0.00 in0.0 mm
08:40 AM 64.2°F17.9°C 56.8°F13.8°C 77% 0.7 mph SE1.1 kmh SE 2.5 mph4.0 kmh 30.05 in1017.6 mb 0.00 in0.0 mm 0.00 in0.0 mm 0.00 in0.0 mm
08:43 AM 64.6°F18.1°C 57.2°F14.0°C 77% 0.7 mph SE1.1 kmh SE 2.2 mph3.5 kmh 30.05 in1017.6 mb 0.00 in0.0 mm 0.00 in0.0 mm 0.00 in0.0 mm
08:45 AM 65.1°F18.4°C 57.7°F14.3°C 77% 1.1 mph 1.8 kmh 2.9 mph4.7 kmh 30.05 in1017.6 mb 0.00 in0.0 mm 0.00 in0.0 mm 0.00 in0.0 mm
08:47 AM 65.3°F18.5°C 57.9°F14.4°C 77% 1.1 mph ENE1.8 kmh ENE 3.8 mph6.1 kmh 30.06 in1017.9 mb 0.00 in0.0 mm 0.00 in0.0 mm 0.00 in0.0 mm
08:49 AM 65.8°F18.8°C 58.5°F14.7°C 77% 1.6 mph NNW2.6 kmh NNW 3.1 mph5.0 kmh 30.06 in1017.9 mb 0.00 in0.0 mm 0.00 in0.0 mm 0.00 in0.0 mm
08:52 AM 66.0°F18.9°C 58.3°F14.6°C 76% 1.3 mph NE2.1 kmh NE 2.0 mph3.2 kmh 30.06 in1017.9 mb 0.00 in0.0 mm 0.00 in0.0 mm 0.00 in0.0 mm
08:54 AM 66.4°F19.1°C 58.6°F14.8°C 76% 1.1 mph WSW1.8 kmh WSW 2.5 mph4.0 kmh 30.06 in1017.9 mb 0.00 in0.0 mm 0.00 in0.0 mm 0.00 in0.0 mm
08:56 AM 66.2°F19.0°C 58.1°F14.5°C 75% 0.9 mph W1.4 kmh W 2.5 mph4.0 kmh 30.06 in1017.9 mb 0.00 in0.0 mm 0.00 in0.0 mm 0.00 in0.0 mm
08:58 AM 65.8°F18.8°C 57.4°F14.1°C 74% 0.9 mph WSW1.4 kmh WSW 2.2 mph3.5 kmh 30.06 in1017.9 mb 0.00 in0.0 mm 0.00 in0.0 mm 0.00 in0.0 mm
09:01 AM 65.3°F18.5°C 56.8°F13.8°C 74% 0.7 mph W1.1 kmh W 2.2 mph3.5 kmh 30.06 in1017.9 mb 0.00 in0.0 mm 0.00 in0.0 mm 0.00 in0.0 mm
09:03 AM 65.1°F18.4°C 56.7°F13.7°C 74% 0.7 mph WNW1.1 kmh WNW 2.5 mph4.0 kmh 30.06 in1017.9 mb 0.00 in0.0 mm 0.00 in0.0 mm 0.00 in0.0 mm
09:05 AM 65.1°F18.4°C 56.7°F13.7°C 74% 0.7 mph SE1.1 kmh SE 2.0 mph3.2 kmh 30.06 in1017.9 mb 0.00 in0.0 mm 0.00 in0.0 mm 0.00 in0.0 mm
09:07 AM 65.3°F18.5°C 57.2°F14.0°C 75% 0.7 mph NW1.1 kmh NW 2.0 mph3.2 kmh 30.06 in1017.9 mb 0.00 in0.0 mm 0.00 in0.0 mm 0.00 in0.0 mm
09:09 AM 65.3°F18.5°C 57.2°F14.0°C 75% 0.4 mph E0.6 kmh E 1.1 mph1.8 kmh 30.05 in1017.6 mb 0.00 in0.0 mm 0.00 in0.0 mm 0.00 in0.0 mm
09:12 AM 65.8°F18.8°C 57.7°F14.3°C 75% 2.0 mph S3.2 kmh S 6.5 mph10.5 kmh 30.06 in1017.9 mb 0.00 in0.0 mm 0.00 in0.0 mm 0.00 in0.0 mm
09:14 AM 66.6°F19.2°C 58.5°F14.7°C 75% 2.2 mph SE3.5 kmh SE 4.5 mph7.2 kmh 30.06 in1017.9 mb 0.00 in0.0 mm 0.00 in0.0 mm 0.00 in0.0 mm
09:16 AM 66.9°F19.4°C 58.3°F14.6°C 74% 4.7 mph E7.6 kmh E 12.8 mph20.6 kmh 30.06 in1017.9 mb 0.00 in0.0 mm 0.00 in0.0 mm 0.00 in0.0 mm
09:18 AM 67.3°F19.6°C 58.3°F14.6°C 73% 4.7 mph E7.6 kmh E 9.2 mph14.8 kmh 30.06 in1017.9 mb 0.00 in0.0 mm 0.00 in0.0 mm 0.00 in0.0 mm
09:20 AM 67.3°F19.6°C 57.9°F14.4°C 72% 4.9 mph E7.9 kmh E 7.4 mph11.9 kmh 30.05 in1017.6 mb 0.00 in0.0 mm 0.00 in0.0 mm 0.00 in0.0 mm
09:22 AM 67.6°F19.8°C 58.3°F14.6°C 72% 5.8 mph ESE9.3 kmh ESE 9.2 mph14.8 kmh 30.06 in1017.9 mb 0.00 in0.0 mm 0.00 in0.0 mm 0.00 in0.0 mm
09:25 AM 67.8°F19.9°C 58.5°F14.7°C 72% 4.3 mph ENE6.9 kmh ENE 5.6 mph9.0 kmh 30.06 in1017.9 mb 0.00 in0.0 mm 0.00 in0.0 mm 0.00 in0.0 mm
09:27 AM 67.8°F19.9°C 58.5°F14.7°C 72% 3.4 mph E5.5 kmh E 6.0 mph9.7 kmh 30.06 in1017.9 mb 0.00 in0.0 mm 0.00 in0.0 mm 0.00 in0.0 mm
09:29 AM 68.2°F20.1°C 58.5°F14.7°C 71% 3.6 mph ESE5.8 kmh ESE 7.4 mph11.9 kmh 30.06 in1017.9 mb 0.00 in0.0 mm 0.00 in0.0 mm 0.00 in0.0 mm
09:31 AM 68.5°F20.3°C 58.8°F14.9°C 71% 2.7 mph NE4.3 kmh NE 3.8 mph6.1 kmh 30.06 in1017.9 mb 0.00 in0.0 mm 0.00 in0.0 mm 0.00 in0.0 mm
09:33 AM 68.7°F20.4°C 58.5°F14.7°C 70% 3.6 mph NE5.8 kmh NE 9.2 mph14.8 kmh 30.06 in1017.9 mb 0.00 in0.0 mm 0.00 in0.0 mm 0.00 in0.0 mm
09:36 AM 68.7°F20.4°C 58.5°F14.7°C 70% 3.4 mph ENE5.5 kmh ENE 5.4 mph8.7 kmh 30.06 in1017.9 mb 0.00 in0.0 mm 0.00 in0.0 mm 0.00 in0.0 mm
09:38 AM 68.9°F20.5°C 58.3°F14.6°C 69% 2.7 mph E4.3 kmh E 2.9 mph4.7 kmh 30.06 in1017.9 mb 0.00 in0.0 mm 0.00 in0.0 mm 0.00 in0.0 mm
09:40 AM 69.1°F20.6°C 58.5°F14.7°C 69% 3.8 mph SSW6.1 kmh SSW 11.0 mph17.7 kmh 30.06 in1017.9 mb 0.00 in0.0 mm 0.00 in0.0 mm 0.00 in0.0 mm
09:43 AM 68.9°F20.5°C 57.9°F14.4°C 68% 4.3 mph E6.9 kmh E 6.3 mph10.1 kmh 30.06 in1017.9 mb 0.00 in0.0 mm 0.00 in0.0 mm 0.00 in0.0 mm
09:45 AM 69.1°F20.6°C 58.1°F14.5°C 68% 2.7 mph ESE4.3 kmh ESE 2.5 mph4.0 kmh 30.06 in1017.9 mb 0.00 in0.0 mm 0.00 in0.0 mm 0.00 in0.0 mm
09:47 AM 69.1°F20.6°C 58.1°F14.5°C 68% 3.4 mph E5.5 kmh E 6.3 mph10.1 kmh 30.06 in1017.9 mb 0.00 in0.0 mm 0.00 in0.0 mm 0.00 in0.0 mm
09:49 AM 69.1°F20.6°C 57.7°F14.3°C 67% 2.5 mph SE4.0 kmh SE 4.7 mph7.6 kmh 30.06 in1017.9 mb 0.00 in0.0 mm 0.00 in0.0 mm 0.00 in0.0 mm
09:51 AM 69.4°F20.8°C 57.9°F14.4°C 67% 2.5 mph ESE4.0 kmh ESE 8.3 mph13.4 kmh 30.06 in1017.9 mb 0.00 in0.0 mm 0.00 in0.0 mm 0.00 in0.0 mm
09:54 AM 69.6°F20.9°C 58.1°F14.5°C 67% 4.0 mph ESE6.4 kmh ESE 11.6 mph18.7 kmh 30.06 in1017.9 mb 0.00 in0.0 mm 0.00 in0.0 mm 0.00 in0.0 mm
09:56 AM 69.4°F20.8°C 57.6°F14.2°C 66% 5.4 mph ESE8.7 kmh ESE 12.1 mph19.5 kmh 30.06 in1017.9 mb 0.00 in0.0 mm 0.00 in0.0 mm 0.00 in0.0 mm
09:58 AM 69.6°F20.9°C 57.7°F14.3°C 66% 6.5 mph ENE10.5 kmh ENE 10.7 mph17.2 kmh 30.06 in1017.9 mb 0.00 in0.0 mm 0.00 in0.0 mm 0.00 in0.0 mm
10:00 AM 69.6°F20.9°C 57.4°F14.1°C 65% 6.5 mph ESE10.5 kmh ESE 10.3 mph16.6 kmh 30.06 in1017.9 mb 0.00 in0.0 mm 0.00 in0.0 mm 0.00 in0.0 mm
10:02 AM 69.6°F20.9°C 57.4°F14.1°C 65% 5.8 mph ESE9.3 kmh ESE 8.7 mph14.0 kmh 30.06 in1017.9 mb 0.00 in0.0 mm 0.00 in0.0 mm 0.00 in0.0 mm
10:04 AM 69.6°F20.9°C 57.4°F14.1°C 65% 5.1 mph NE8.2 kmh NE 6.3 mph10.1 kmh 30.06 in1017.9 mb 0.00 in0.0 mm 0.00 in0.0 mm 0.00 in0.0 mm
10:06 AM 69.6°F20.9°C 57.4°F14.1°C 65% 3.4 mph E5.5 kmh E 6.9 mph11.1 kmh 30.06 in1017.9 mb 0.00 in0.0 mm 0.00 in0.0 mm 0.00 in0.0 mm
10:09 AM 70.0°F21.1°C 57.7°F14.3°C 65% 2.0 mph ESE3.2 kmh ESE 3.1 mph5.0 kmh 30.06 in1017.9 mb 0.00 in0.0 mm 0.00 in0.0 mm 0.00 in0.0 mm
10:11 AM 70.3°F21.3°C 58.1°F14.5°C 65% 2.0 mph SSE3.2 kmh SSE 4.0 mph6.4 kmh 30.06 in1017.9 mb 0.00 in0.0 mm 0.00 in0.0 mm 0.00 in0.0 mm
10:13 AM 70.5°F21.4°C 57.7°F14.3°C 64% 1.8 mph SSW2.9 kmh SSW 2.2 mph3.5 kmh 30.06 in1017.9 mb 0.00 in0.0 mm 0.00 in0.0 mm 0.00 in0.0 mm
10:15 AM 70.9°F21.6°C 58.1°F14.5°C 64% 1.6 mph E2.6 kmh E 3.6 mph5.8 kmh 30.06 in1017.9 mb 0.00 in0.0 mm 0.00 in0.0 mm 0.00 in0.0 mm
10:17 AM 71.1°F21.7°C 58.3°F14.6°C 64% 1.8 mph E2.9 kmh E 5.4 mph8.7 kmh 30.06 in1017.9 mb 0.00 in0.0 mm 0.00 in0.0 mm 0.00 in0.0 mm
10:19 AM 71.2°F21.8°C 57.6°F14.2°C 62% 1.8 mph SE2.9 kmh SE 2.9 mph4.7 kmh 30.06 in1017.9 mb 0.00 in0.0 mm 0.00 in0.0 mm 0.00 in0.0 mm
10:21 AM 71.4°F21.9°C 57.7°F14.3°C 62% 2.2 mph NE3.5 kmh NE 5.1 mph8.2 kmh 30.06 in1017.9 mb 0.00 in0.0 mm 0.00 in0.0 mm 0.00 in0.0 mm
10:23 AM 71.2°F21.8°C 57.0°F13.9°C 61% 4.5 mph E7.2 kmh E 13.6 mph21.9 kmh 30.06 in1017.9 mb 0.00 in0.0 mm 0.00 in0.0 mm 0.00 in0.0 mm
10:25 AM 71.2°F21.8°C 57.0°F13.9°C 61% 2.7 mph S4.3 kmh S 2.2 mph3.5 kmh 30.06 in1017.9 mb 0.00 in0.0 mm 0.00 in0.0 mm 0.00 in0.0 mm
10:28 AM 71.2°F21.8°C 57.0°F13.9°C 61% 3.6 mph E5.8 kmh E 8.9 mph14.3 kmh 30.06 in1017.9 mb 0.00 in0.0 mm 0.00 in0.0 mm 0.00 in0.0 mm
10:30 AM 71.4°F21.9°C 57.2°F14.0°C 61% 3.8 mph E6.1 kmh E 8.5 mph13.7 kmh 30.06 in1017.9 mb 0.00 in0.0 mm 0.00 in0.0 mm 0.00 in0.0 mm
10:32 AM 71.4°F21.9°C 56.8°F13.8°C 60% 4.9 mph E7.9 kmh E 10.3 mph16.6 kmh 30.06 in1017.9 mb 0.00 in0.0 mm 0.00 in0.0 mm 0.00 in0.0 mm
10:34 AM 71.2°F21.8°C 56.1°F13.4°C 59% 4.5 mph SE7.2 kmh SE 9.4 mph15.1 kmh 30.06 in1017.9 mb 0.00 in0.0 mm 0.00 in0.0 mm 0.00 in0.0 mm
10:36 AM 71.4°F21.9°C 56.8°F13.8°C 60% 3.6 mph ESE5.8 kmh ESE 6.3 mph10.1 kmh 30.06 in1017.9 mb 0.00 in0.0 mm 0.00 in0.0 mm 0.00 in0.0 mm
10:38 AM 71.4°F21.9°C 56.8°F13.8°C 60% 4.5 mph SSE7.2 kmh SSE 7.8 mph12.6 kmh 30.06 in1017.9 mb 0.00 in0.0 mm 0.00 in0.0 mm 0.00 in0.0 mm
10:41 AM 71.4°F21.9°C 56.3°F13.5°C 59% 4.3 mph ESE6.9 kmh ESE 5.4 mph8.7 kmh 30.06 in1017.9 mb 0.00 in0.0 mm 0.00 in0.0 mm 0.00 in0.0 mm
10:43 AM 72.0°F22.2°C 56.8°F13.8°C 59% 2.7 mph SE4.3 kmh SE 2.9 mph4.7 kmh 30.06 in1017.9 mb 0.00 in0.0 mm 0.00 in0.0 mm 0.00 in0.0 mm
10:45 AM 72.3°F22.4°C 57.2°F14.0°C 59% 3.8 mph ENE6.1 kmh ENE 10.1 mph16.3 kmh 30.06 in1017.9 mb 0.00 in0.0 mm 0.00 in0.0 mm 0.00 in0.0 mm
10:47 AM 72.5°F22.5°C 57.4°F14.1°C 59% 3.1 mph ESE5.0 kmh ESE 5.4 mph8.7 kmh 30.06 in1017.9 mb 0.00 in0.0 mm 0.00 in0.0 mm 0.00 in0.0 mm
10:49 AM 72.7°F22.6°C 57.0°F13.9°C 58% 3.8 mph E6.1 kmh E 9.2 mph14.8 kmh 30.06 in1017.9 mb 0.00 in0.0 mm 0.00 in0.0 mm 0.00 in0.0 mm
10:52 AM 72.7°F22.6°C 57.0°F13.9°C 58% 4.0 mph E6.4 kmh E 5.1 mph8.2 kmh 30.07 in1018.3 mb 0.00 in0.0 mm 0.00 in0.0 mm 0.00 in0.0 mm
10:54 AM 72.3°F22.4°C 56.7°F13.7°C 58% 3.1 mph ESE5.0 kmh ESE 4.7 mph7.6 kmh 30.07 in1018.3 mb 0.00 in0.0 mm 0.00 in0.0 mm 0.00 in0.0 mm
10:56 AM 72.3°F22.4°C 56.3°F13.5°C 57% 4.0 mph SE6.4 kmh SE 10.3 mph16.6 kmh 30.06 in1017.9 mb 0.00 in0.0 mm 0.00 in0.0 mm 0.00 in0.0 mm
10:58 AM 72.3°F22.4°C 56.3°F13.5°C 57% 4.7 mph NNW7.6 kmh NNW 8.5 mph13.7 kmh 30.06 in1017.9 mb 0.00 in0.0 mm 0.00 in0.0 mm 0.00 in0.0 mm
11:01 AM 72.3°F22.4°C 56.7°F13.7°C 58% 2.9 mph ENE4.7 kmh ENE 2.9 mph4.7 kmh 30.06 in1017.9 mb 0.00 in0.0 mm 0.00 in0.0 mm 0.00 in0.0 mm
11:03 AM 72.5°F22.5°C 56.5°F13.6°C 57% 4.3 mph NE6.9 kmh NE 10.5 mph16.9 kmh 30.06 in1017.9 mb 0.00 in0.0 mm 0.00 in0.0 mm 0.00 in0.0 mm
11:05 AM 72.9°F22.7°C 56.7°F13.7°C 57% 2.9 mph ENE4.7 kmh ENE 3.4 mph5.5 kmh 30.06 in1017.9 mb 0.00 in0.0 mm 0.00 in0.0 mm 0.00 in0.0 mm
11:07 AM 73.0°F22.8°C 56.5°F13.6°C 56% 4.7 mph ENE7.6 kmh ENE 10.5 mph16.9 kmh 30.06 in1017.9 mb 0.00 in0.0 mm 0.00 in0.0 mm 0.00 in0.0 mm
11:09 AM 73.2°F22.9°C 56.7°F13.7°C 56% 4.7 mph ENE7.6 kmh ENE 7.2 mph11.6 kmh 30.06 in1017.9 mb 0.00 in0.0 mm 0.00 in0.0 mm 0.00 in0.0 mm
11:11 AM 73.2°F22.9°C 56.1°F13.4°C 55% 4.5 mph ESE7.2 kmh ESE 5.8 mph9.3 kmh 30.06 in1017.9 mb 0.00 in0.0 mm 0.00 in0.0 mm 0.00 in0.0 mm
11:14 AM 73.2°F22.9°C 55.6°F13.1°C 54% 3.6 mph ESE5.8 kmh ESE 6.7 mph10.8 kmh 30.06 in1017.9 mb 0.00 in0.0 mm 0.00 in0.0 mm 0.00 in0.0 mm
11:16 AM 73.2°F22.9°C 56.1°F13.4°C 55% 4.5 mph WSW7.2 kmh WSW 11.6 mph18.7 kmh 30.06 in1017.9 mb 0.00 in0.0 mm 0.00 in0.0 mm 0.00 in0.0 mm
11:18 AM 73.6°F23.1°C 56.5°F13.6°C 55% 2.9 mph ESE4.7 kmh ESE 3.6 mph5.8 kmh 30.06 in1017.9 mb 0.00 in0.0 mm 0.00 in0.0 mm 0.00 in0.0 mm
11:21 AM 73.8°F23.2°C 55.6°F13.1°C 53% 2.7 mph 4.3 kmh 5.1 mph8.2 kmh 30.06 in1017.9 mb 0.00 in0.0 mm 0.00 in0.0 mm 0.00 in0.0 mm
11:23 AM 73.4°F23.0°C 54.7°F12.6°C 52% 4.3 mph NNE6.9 kmh NNE 9.8 mph15.8 kmh 30.06 in1017.9 mb 0.00 in0.0 mm 0.00 in0.0 mm 0.00 in0.0 mm
11:25 AM 73.2°F22.9°C 54.5°F12.5°C 52% 4.9 mph ESE7.9 kmh ESE 12.5 mph20.1 kmh 30.06 in1017.9 mb 0.00 in0.0 mm 0.00 in0.0 mm 0.00 in0.0 mm
11:28 AM 73.0°F22.8°C 54.3°F12.4°C 52% 4.5 mph SE7.2 kmh SE 7.4 mph11.9 kmh 30.06 in1017.9 mb 0.00 in0.0 mm 0.00 in0.0 mm 0.00 in0.0 mm
11:30 AM 73.0°F22.8°C 54.3°F12.4°C 52% 4.3 mph SSE6.9 kmh SSE 8.9 mph14.3 kmh 30.06 in1017.9 mb 0.00 in0.0 mm 0.00 in0.0 mm 0.00 in0.0 mm
11:32 AM 73.2°F22.9°C 54.5°F12.5°C 52% 3.6 mph WNW5.8 kmh WNW 7.2 mph11.6 kmh 30.06 in1017.9 mb 0.00 in0.0 mm 0.00 in0.0 mm 0.00 in0.0 mm
11:34 AM 73.2°F22.9°C 54.5°F12.5°C 52% 4.3 mph E6.9 kmh E 10.3 mph16.6 kmh 30.06 in1017.9 mb 0.00 in0.0 mm 0.00 in0.0 mm 0.00 in0.0 mm
11:37 AM 73.2°F22.9°C 54.5°F12.5°C 52% 3.8 mph E6.1 kmh E 5.1 mph8.2 kmh 30.06 in1017.9 mb 0.00 in0.0 mm 0.00 in0.0 mm 0.00 in0.0 mm
11:39 AM 73.2°F22.9°C 54.5°F12.5°C 52% 5.8 mph E9.3 kmh E 12.5 mph20.1 kmh 30.06 in1017.9 mb 0.00 in0.0 mm 0.00 in0.0 mm 0.00 in0.0 mm
11:41 AM 73.0°F22.8°C 54.3°F12.4°C 52% 4.5 mph NE7.2 kmh NE 4.7 mph7.6 kmh 30.06 in1017.9 mb 0.00 in0.0 mm 0.00 in0.0 mm 0.00 in0.0 mm
11:43 AM 73.2°F22.9°C 54.5°F12.5°C 52% 3.8 mph E6.1 kmh E 6.0 mph9.7 kmh 30.06 in1017.9 mb 0.00 in0.0 mm 0.00 in0.0 mm 0.00 in0.0 mm
11:45 AM 73.2°F22.9°C 54.5°F12.5°C 52% 5.4 mph ESE8.7 kmh ESE 10.5 mph16.9 kmh 30.06 in1017.9 mb 0.00 in0.0 mm 0.00 in0.0 mm 0.00 in0.0 mm
11:47 AM 73.2°F22.9°C 55.0°F12.8°C 53% 5.8 mph ESE9.3 kmh ESE 13.0 mph20.9 kmh 30.06 in1017.9 mb 0.00 in0.0 mm 0.00 in0.0 mm 0.00 in0.0 mm
11:49 AM 73.2°F22.9°C 54.5°F12.5°C 52% 6.3 mph E10.1 kmh E 9.2 mph14.8 kmh 30.06 in1017.9 mb 0.00 in0.0 mm 0.00 in0.0 mm 0.00 in0.0 mm
11:51 AM 73.2°F22.9°C 54.5°F12.5°C 52% 4.9 mph E7.9 kmh E 9.2 mph14.8 kmh 30.06 in1017.9 mb 0.00 in0.0 mm 0.00 in0.0 mm 0.00 in0.0 mm
11:54 AM 73.6°F23.1°C 55.4°F13.0°C 53% 4.7 mph E7.6 kmh E 8.1 mph13.0 kmh 30.06 in1017.9 mb 0.00 in0.0 mm 0.00 in0.0 mm 0.00 in0.0 mm
11:56 AM 73.6°F23.1°C 55.4°F13.0°C 53% 3.6 mph ENE5.8 kmh ENE 4.7 mph7.6 kmh 30.06 in1017.9 mb 0.00 in0.0 mm 0.00 in0.0 mm 0.00 in0.0 mm
11:58 AM 73.9°F23.3°C 55.8°F13.2°C 53% 4.5 mph E7.2 kmh E 9.8 mph15.8 kmh 30.06 in1017.9 mb 0.00 in0.0 mm 0.00 in0.0 mm 0.00 in0.0 mm
12:00 PM 73.9°F23.3°C 55.8°F13.2°C 53% 6.0 mph E9.7 kmh E 11.4 mph18.3 kmh 30.06 in1017.9 mb 0.00 in0.0 mm 0.00 in0.0 mm 0.00 in0.0 mm
12:02 PM 73.9°F23.3°C 55.8°F13.2°C 53% 6.5 mph E10.5 kmh E 11.9 mph19.2 kmh 30.05 in1017.6 mb 0.00 in0.0 mm 0.00 in0.0 mm 0.00 in0.0 mm
12:04 PM 73.9°F23.3°C 55.8°F13.2°C 53% 5.1 mph 8.2 kmh 14.8 mph23.8 kmh 30.06 in1017.9 mb 0.00 in0.0 mm 0.00 in0.0 mm 0.00 in0.0 mm
12:07 PM 74.1°F23.4°C 55.9°F13.3°C 53% 3.4 mph 5.5 kmh 3.6 mph5.8 kmh 30.06 in1017.9 mb 0.00 in0.0 mm 0.00 in0.0 mm 0.00 in0.0 mm
12:09 PM 74.1°F23.4°C 55.9°F13.3°C 53% 4.5 mph E7.2 kmh E 8.3 mph13.4 kmh 30.06 in1017.9 mb 0.00 in0.0 mm 0.00 in0.0 mm 0.00 in0.0 mm
12:11 PM 74.1°F23.4°C 55.9°F13.3°C 53% 4.3 mph 6.9 kmh 7.8 mph12.6 kmh 30.06 in1017.9 mb 0.00 in0.0 mm 0.00 in0.0 mm 0.00 in0.0 mm
12:13 PM 74.3°F23.5°C 56.1°F13.4°C 53% 3.8 mph SW6.1 kmh SW 7.8 mph12.6 kmh 30.05 in1017.6 mb 0.00 in0.0 mm 0.00 in0.0 mm 0.00 in0.0 mm
12:16 PM 74.3°F23.5°C 56.1°F13.4°C 53% 5.8 mph E9.3 kmh E 11.4 mph18.3 kmh 30.06 in1017.9 mb 0.00 in0.0 mm 0.00 in0.0 mm 0.00 in0.0 mm
12:18 PM 74.1°F23.4°C 55.9°F13.3°C 53% 5.6 mph E9.0 kmh E 13.0 mph20.9 kmh 30.06 in1017.9 mb 0.00 in0.0 mm 0.00 in0.0 mm 0.00 in0.0 mm
12:20 PM 73.9°F23.3°C 55.8°F13.2°C 53% 5.6 mph E9.0 kmh E 11.0 mph17.7 kmh 30.05 in1017.6 mb 0.00 in0.0 mm 0.00 in0.0 mm 0.00 in0.0 mm
12:22 PM 73.9°F23.3°C 55.8°F13.2°C 53% 5.8 mph SE9.3 kmh SE 9.8 mph15.8 kmh 30.06 in1017.9 mb 0.00 in0.0 mm 0.00 in0.0 mm 0.00 in0.0 mm
12:24 PM 73.9°F23.3°C 55.8°F13.2°C 53% 5.6 mph ESE9.0 kmh ESE 8.9 mph14.3 kmh 30.06 in1017.9 mb 0.00 in0.0 mm 0.00 in0.0 mm 0.00 in0.0 mm
12:26 PM 73.8°F23.2°C 55.6°F13.1°C 53% 4.9 mph WSW7.9 kmh WSW 9.6 mph15.4 kmh 30.05 in1017.6 mb 0.00 in0.0 mm 0.00 in0.0 mm 0.00 in0.0 mm
12:29 PM 73.8°F23.2°C 55.6°F13.1°C 53% 6.7 mph ESE10.8 kmh ESE 13.2 mph21.2 kmh 30.06 in1017.9 mb 0.00 in0.0 mm 0.00 in0.0 mm 0.00 in0.0 mm
12:31 PM 73.6°F23.1°C 55.9°F13.3°C 54% 6.3 mph ENE10.1 kmh ENE 8.5 mph13.7 kmh 30.05 in1017.6 mb 0.00 in0.0 mm 0.00 in0.0 mm 0.00 in0.0 mm
12:33 PM 73.6°F23.1°C 55.9°F13.3°C 54% 5.1 mph SE8.2 kmh SE 5.8 mph9.3 kmh 30.06 in1017.9 mb 0.00 in0.0 mm 0.00 in0.0 mm 0.00 in0.0 mm
12:35 PM 73.8°F23.2°C 56.1°F13.4°C 54% 4.5 mph SW7.2 kmh SW 5.6 mph9.0 kmh 30.05 in1017.6 mb 0.00 in0.0 mm 0.00 in0.0 mm 0.00 in0.0 mm
12:37 PM 73.8°F23.2°C 56.1°F13.4°C 54% 4.5 mph ESE7.2 kmh ESE 9.4 mph15.1 kmh 30.05 in1017.6 mb 0.00 in0.0 mm 0.00 in0.0 mm 0.00 in0.0 mm
12:39 PM 73.8°F23.2°C 56.1°F13.4°C 54% 5.1 mph S8.2 kmh S 14.5 mph23.3 kmh 30.05 in1017.6 mb 0.00 in0.0 mm 0.00 in0.0 mm 0.00 in0.0 mm
12:42 PM 73.6°F23.1°C 55.9°F13.3°C 54% 6.0 mph ENE9.7 kmh ENE 8.5 mph13.7 kmh 30.05 in1017.6 mb 0.00 in0.0 mm 0.00 in0.0 mm 0.00 in0.0 mm
12:44 PM 73.8°F23.2°C 56.1°F13.4°C 54% 5.6 mph S9.0 kmh S 11.9 mph19.2 kmh 30.05 in1017.6 mb 0.00 in0.0 mm 0.00 in0.0 mm 0.00 in0.0 mm
12:46 PM 73.9°F23.3°C 56.3°F13.5°C 54% 4.9 mph NNW7.9 kmh NNW 8.5 mph13.7 kmh 30.06 in1017.9 mb 0.00 in0.0 mm 0.00 in0.0 mm 0.00 in0.0 mm
12:48 PM 73.9°F23.3°C 56.3°F13.5°C 54% 2.9 mph SE4.7 kmh SE 2.9 mph4.7 kmh 30.05 in1017.6 mb 0.00 in0.0 mm 0.00 in0.0 mm 0.00 in0.0 mm
12:50 PM 74.1°F23.4°C 56.5°F13.6°C 54% 3.1 mph ESE5.0 kmh ESE 6.3 mph10.1 kmh 30.05 in1017.6 mb 0.00 in0.0 mm 0.00 in0.0 mm 0.00 in0.0 mm
12:52 PM 74.3°F23.5°C 56.7°F13.7°C 54% 4.5 mph SSE7.2 kmh SSE 12.1 mph19.5 kmh 30.05 in1017.6 mb 0.00 in0.0 mm 0.00 in0.0 mm 0.00 in0.0 mm
12:55 PM 74.1°F23.4°C 56.5°F13.6°C 54% 6.3 mph ENE10.1 kmh ENE 11.9 mph19.2 kmh 30.05 in1017.6 mb 0.00 in0.0 mm 0.00 in0.0 mm 0.00 in0.0 mm
12:57 PM 74.1°F23.4°C 56.5°F13.6°C 54% 6.7 mph ENE10.8 kmh ENE 15.4 mph24.8 kmh 30.05 in1017.6 mb 0.00 in0.0 mm 0.00 in0.0 mm 0.00 in0.0 mm
12:59 PM 73.9°F23.3°C 56.3°F13.5°C 54% 4.3 mph WSW6.9 kmh WSW 6.5 mph10.5 kmh 30.05 in1017.6 mb 0.00 in0.0 mm 0.00 in0.0 mm 0.00 in0.0 mm
01:01 PM 74.1°F23.4°C 56.5°F13.6°C 54% 3.1 mph NW5.0 kmh NW 4.7 mph7.6 kmh 30.05 in1017.6 mb 0.00 in0.0 mm 0.00 in0.0 mm 0.00 in0.0 mm
01:03 PM 74.3°F23.5°C 56.7°F13.7°C 54% 2.0 mph 3.2 kmh 1.6 mph2.6 kmh 30.05 in1017.6 mb 0.00 in0.0 mm 0.00 in0.0 mm 0.00 in0.0 mm
01:06 PM 74.7°F23.7°C 56.8°F13.8°C 54% 2.5 mph NNE4.0 kmh NNE 4.9 mph7.9 kmh 30.05 in1017.6 mb 0.00 in0.0 mm 0.00 in0.0 mm 0.00 in0.0 mm
01:08 PM 74.7°F23.7°C 56.5°F13.6°C 53% 4.3 mph ENE6.9 kmh ENE 11.2 mph18.0 kmh 30.04 in1017.3 mb 0.00 in0.0 mm 0.00 in0.0 mm 0.00 in0.0 mm
01:10 PM 74.5°F23.6°C 56.7°F13.7°C 54% 5.4 mph ESE8.7 kmh ESE 17.0 mph27.4 kmh 30.04 in1017.3 mb 0.00 in0.0 mm 0.00 in0.0 mm 0.00 in0.0 mm
01:12 PM 73.9°F23.3°C 56.8°F13.8°C 55% 6.7 mph ENE10.8 kmh ENE 10.5 mph16.9 kmh 30.04 in1017.3 mb 0.00 in0.0 mm 0.00 in0.0 mm 0.00 in0.0 mm
01:14 PM 73.9°F23.3°C 56.8°F13.8°C 55% 6.7 mph ESE10.8 kmh ESE 9.2 mph14.8 kmh 30.04 in1017.3 mb 0.00 in0.0 mm 0.00 in0.0 mm 0.00 in0.0 mm
01:17 PM 73.9°F23.3°C 56.3°F13.5°C 54% 5.8 mph SE9.3 kmh SE 8.7 mph14.0 kmh 30.04 in1017.3 mb 0.00 in0.0 mm 0.00 in0.0 mm 0.00 in0.0 mm
01:19 PM 74.1°F23.4°C 56.5°F13.6°C 54% 5.8 mph ESE9.3 kmh ESE 9.2 mph14.8 kmh 30.04 in1017.3 mb 0.00 in0.0 mm 0.00 in0.0 mm 0.00 in0.0 mm
01:21 PM 74.1°F23.4°C 56.5°F13.6°C 54% 5.6 mph SSE9.0 kmh SSE 8.7 mph14.0 kmh 30.03 in1016.9 mb 0.00 in0.0 mm 0.00 in0.0 mm 0.00 in0.0 mm
01:23 PM 74.1°F23.4°C 56.5°F13.6°C 54% 5.8 mph ESE9.3 kmh ESE 14.3 mph23.0 kmh 30.04 in1017.3 mb 0.00 in0.0 mm 0.00 in0.0 mm 0.00 in0.0 mm
01:25 PM 74.1°F23.4°C 55.9°F13.3°C 53% 6.3 mph ESE10.1 kmh ESE 11.9 mph19.2 kmh 30.04 in1017.3 mb 0.00 in0.0 mm 0.00 in0.0 mm 0.00 in0.0 mm
01:27 PM 74.1°F23.4°C 56.5°F13.6°C 54% 7.2 mph E11.6 kmh E 11.4 mph18.3 kmh 30.04 in1017.3 mb 0.00 in0.0 mm 0.00 in0.0 mm 0.00 in0.0 mm
01:29 PM 74.1°F23.4°C 56.8°F13.8°C 55% 8.1 mph E13.0 kmh E 12.1 mph19.5 kmh 30.04 in1017.3 mb 0.00 in0.0 mm 0.00 in0.0 mm 0.00 in0.0 mm
01:31 PM 73.9°F23.3°C 56.8°F13.8°C 55% 7.2 mph SE11.6 kmh SE 10.5 mph16.9 kmh 30.04 in1017.3 mb 0.00 in0.0 mm 0.00 in0.0 mm 0.00 in0.0 mm
01:34 PM 73.9°F23.3°C 57.2°F14.0°C 56% 5.8 mph 9.3 kmh 11.4 mph18.3 kmh 30.04 in1017.3 mb 0.00 in0.0 mm 0.00 in0.0 mm 0.00 in0.0 mm
01:36 PM 73.8°F23.2°C 57.0°F13.9°C 56% 3.6 mph ENE5.8 kmh ENE 5.6 mph9.0 kmh 30.04 in1017.3 mb 0.00 in0.0 mm 0.00 in0.0 mm 0.00 in0.0 mm
01:38 PM 73.9°F23.3°C 57.2°F14.0°C 56% 4.3 mph ENE6.9 kmh ENE 8.7 mph14.0 kmh 30.04 in1017.3 mb 0.00 in0.0 mm 0.00 in0.0 mm 0.00 in0.0 mm
01:40 PM 73.8°F23.2°C 57.0°F13.9°C 56% 5.6 mph ENE9.0 kmh ENE 10.5 mph16.9 kmh 30.04 in1017.3 mb 0.00 in0.0 mm 0.00 in0.0 mm 0.00 in0.0 mm
01:43 PM 73.4°F23.0°C 56.7°F13.7°C 56% 7.6 mph E12.2 kmh E 13.0 mph20.9 kmh 30.04 in1017.3 mb 0.00 in0.0 mm 0.00 in0.0 mm 0.00 in0.0 mm
01:45 PM 73.2°F22.9°C 57.0°F13.9°C 57% 6.3 mph NW10.1 kmh NW 8.5 mph13.7 kmh 30.04 in1017.3 mb 0.00 in0.0 mm 0.00 in0.0 mm 0.00 in0.0 mm
01:47 PM 73.4°F23.0°C 57.2°F14.0°C 57% 5.1 mph SSE8.2 kmh SSE 7.8 mph12.6 kmh 30.04 in1017.3 mb 0.00 in0.0 mm 0.00 in0.0 mm 0.00 in0.0 mm
01:49 PM 73.4°F23.0°C 56.7°F13.7°C 56% 7.4 mph ESE11.9 kmh ESE 18.1 mph29.1 kmh 30.04 in1017.3 mb 0.00 in0.0 mm 0.00 in0.0 mm 0.00 in0.0 mm
01:51 PM 73.2°F22.9°C 56.7°F13.7°C 56% 6.9 mph NNE11.1 kmh NNE 9.8 mph15.8 kmh 30.03 in1016.9 mb 0.00 in0.0 mm 0.00 in0.0 mm 0.00 in0.0 mm
01:53 PM 73.2°F22.9°C 56.7°F13.7°C 56% 4.9 mph SSW7.9 kmh SSW 3.8 mph6.1 kmh 30.03 in1016.9 mb 0.00 in0.0 mm 0.00 in0.0 mm 0.00 in0.0 mm
01:56 PM 73.6°F23.1°C 56.8°F13.8°C 56% 4.0 mph ENE6.4 kmh ENE 4.9 mph7.9 kmh 30.03 in1016.9 mb 0.00 in0.0 mm 0.00 in0.0 mm 0.00 in0.0 mm
01:58 PM 73.8°F23.2°C 57.0°F13.9°C 56% 3.8 mph WNW6.1 kmh WNW 9.2 mph14.8 kmh 30.03 in1016.9 mb 0.00 in0.0 mm 0.00 in0.0 mm 0.00 in0.0 mm
02:00 PM 74.1°F23.4°C 57.4°F14.1°C 56% 3.6 mph ENE5.8 kmh ENE 6.5 mph10.5 kmh 30.03 in1016.9 mb 0.00 in0.0 mm 0.00 in0.0 mm 0.00 in0.0 mm
02:02 PM 74.3°F23.5°C 57.0°F13.9°C 55% 3.8 mph ESE6.1 kmh ESE 7.2 mph11.6 kmh 30.03 in1016.9 mb 0.00 in0.0 mm 0.00 in0.0 mm 0.00 in0.0 mm
02:04 PM 74.3°F23.5°C 56.7°F13.7°C 54% 4.0 mph ENE6.4 kmh ENE 7.6 mph12.2 kmh 30.03 in1016.9 mb 0.00 in0.0 mm 0.00 in0.0 mm 0.00 in0.0 mm
02:06 PM 74.5°F23.6°C 56.7°F13.7°C 54% 3.4 mph NE5.5 kmh NE 10.3 mph16.6 kmh 30.03 in1016.9 mb 0.00 in0.0 mm 0.00 in0.0 mm 0.00 in0.0 mm
02:08 PM 74.5°F23.6°C 56.3°F13.5°C 53% 3.8 mph NNE6.1 kmh NNE 6.9 mph11.1 kmh 30.03 in1016.9 mb 0.00 in0.0 mm 0.00 in0.0 mm 0.00 in0.0 mm
02:11 PM 74.5°F23.6°C 56.7°F13.7°C 54% 2.5 mph NW4.0 kmh NW 2.5 mph4.0 kmh 30.03 in1016.9 mb 0.00 in0.0 mm 0.00 in0.0 mm 0.00 in0.0 mm
02:13 PM 74.5°F23.6°C 56.3°F13.5°C 53% 3.1 mph SE5.0 kmh SE 6.9 mph11.1 kmh 30.03 in1016.9 mb 0.00 in0.0 mm 0.00 in0.0 mm 0.00 in0.0 mm
02:15 PM 74.8°F23.8°C 56.5°F13.6°C 53% 3.1 mph ENE5.0 kmh ENE 10.5 mph16.9 kmh 30.03 in1016.9 mb 0.00 in0.0 mm 0.00 in0.0 mm 0.00 in0.0 mm
02:18 PM 74.5°F23.6°C 56.3°F13.5°C 53% 5.6 mph E9.0 kmh E 13.0 mph20.9 kmh 30.03 in1016.9 mb 0.00 in0.0 mm 0.00 in0.0 mm 0.00 in0.0 mm
02:20 PM 74.3°F23.5°C 56.1°F13.4°C 53% 4.7 mph SSW7.6 kmh SSW 9.2 mph14.8 kmh 30.04 in1017.3 mb 0.00 in0.0 mm 0.00 in0.0 mm 0.00 in0.0 mm
02:22 PM 74.3°F23.5°C 56.7°F13.7°C 54% 3.4 mph ENE5.5 kmh ENE 2.9 mph4.7 kmh 30.04 in1017.3 mb 0.00 in0.0 mm 0.00 in0.0 mm 0.00 in0.0 mm
02:24 PM 74.5°F23.6°C 56.7°F13.7°C 54% 2.9 mph ENE4.7 kmh ENE 6.0 mph9.7 kmh 30.03 in1016.9 mb 0.00 in0.0 mm 0.00 in0.0 mm 0.00 in0.0 mm
02:26 PM 74.5°F23.6°C 56.7°F13.7°C 54% 3.4 mph SE5.5 kmh SE 8.3 mph13.4 kmh 30.03 in1016.9 mb 0.00 in0.0 mm 0.00 in0.0 mm 0.00 in0.0 mm
02:28 PM 74.5°F23.6°C 56.7°F13.7°C 54% 4.3 mph NE6.9 kmh NE 9.2 mph14.8 kmh 30.04 in1017.3 mb 0.00 in0.0 mm 0.00 in0.0 mm 0.00 in0.0 mm
02:30 PM 74.5°F23.6°C 56.7°F13.7°C 54% 5.1 mph NE8.2 kmh NE 11.6 mph18.7 kmh 30.04 in1017.3 mb 0.00 in0.0 mm 0.00 in0.0 mm 0.00 in0.0 mm
02:32 PM 73.9°F23.3°C 56.8°F13.8°C 55% 6.0 mph ESE9.7 kmh ESE 11.0 mph17.7 kmh 30.04 in1017.3 mb 0.00 in0.0 mm 0.00 in0.0 mm 0.00 in0.0 mm
02:35 PM 73.8°F23.2°C 57.0°F13.9°C 56% 5.1 mph 8.2 kmh 10.3 mph16.6 kmh 30.04 in1017.3 mb 0.00 in0.0 mm 0.00 in0.0 mm 0.00 in0.0 mm
02:37 PM 73.6°F23.1°C 56.8°F13.8°C 56% 3.1 mph SE5.0 kmh SE 4.0 mph6.4 kmh 30.04 in1017.3 mb 0.00 in0.0 mm 0.00 in0.0 mm 0.00 in0.0 mm
02:39 PM 73.4°F23.0°C 56.7°F13.7°C 56% 5.4 mph ENE8.7 kmh ENE 12.8 mph20.6 kmh 30.04 in1017.3 mb 0.00 in0.0 mm 0.00 in0.0 mm 0.00 in0.0 mm
02:42 PM 73.2°F22.9°C 57.0°F13.9°C 57% 3.6 mph ESE5.8 kmh ESE 4.7 mph7.6 kmh 30.04 in1017.3 mb 0.00 in0.0 mm 0.00 in0.0 mm 0.00 in0.0 mm
02:44 PM 73.4°F23.0°C 57.2°F14.0°C 57% 3.8 mph E6.1 kmh E 7.6 mph12.2 kmh 30.04 in1017.3 mb 0.00 in0.0 mm 0.00 in0.0 mm 0.00 in0.0 mm
02:46 PM 73.2°F22.9°C 57.6°F14.2°C 58% 5.4 mph ESE8.7 kmh ESE 11.4 mph18.3 kmh 30.05 in1017.6 mb 0.00 in0.0 mm 0.00 in0.0 mm 0.00 in0.0 mm
02:48 PM 73.0°F22.8°C 57.9°F14.4°C 59% 5.4 mph ESE8.7 kmh ESE 13.6 mph21.9 kmh 30.04 in1017.3 mb 0.00 in0.0 mm 0.00 in0.0 mm 0.00 in0.0 mm
02:50 PM 73.0°F22.8°C 57.4°F14.1°C 58% 4.5 mph NE7.2 kmh NE 6.9 mph11.1 kmh 30.05 in1017.6 mb 0.00 in0.0 mm 0.00 in0.0 mm 0.00 in0.0 mm
02:53 PM 72.9°F22.7°C 57.2°F14.0°C 58% 3.4 mph SE5.5 kmh SE 6.3 mph10.1 kmh 30.05 in1017.6 mb 0.00 in0.0 mm 0.00 in0.0 mm 0.00 in0.0 mm
02:55 PM 73.0°F22.8°C 57.4°F14.1°C 58% 2.5 mph ENE4.0 kmh ENE 4.7 mph7.6 kmh 30.05 in1017.6 mb 0.00 in0.0 mm 0.00 in0.0 mm 0.00 in0.0 mm
02:57 PM 73.0°F22.8°C 56.8°F13.8°C 57% 2.5 mph NNW4.0 kmh NNW 3.8 mph6.1 kmh 30.05 in1017.6 mb 0.00 in0.0 mm 0.00 in0.0 mm 0.00 in0.0 mm
02:59 PM 72.9°F22.7°C 56.7°F13.7°C 57% 3.1 mph ENE5.0 kmh ENE 5.6 mph9.0 kmh 30.05 in1017.6 mb 0.00 in0.0 mm 0.00 in0.0 mm 0.00 in0.0 mm
03:01 PM 72.7°F22.6°C 57.0°F13.9°C 58% 4.5 mph ENE7.2 kmh ENE 11.4 mph18.3 kmh 30.05 in1017.6 mb 0.00 in0.0 mm 0.00 in0.0 mm 0.00 in0.0 mm
03:03 PM 72.5°F22.5°C 56.8°F13.8°C 58% 4.5 mph WSW7.2 kmh WSW 11.4 mph18.3 kmh 30.05 in1017.6 mb 0.00 in0.0 mm 0.00 in0.0 mm 0.00 in0.0 mm
03:06 PM 72.5°F22.5°C 56.8°F13.8°C 58% 2.7 mph SE4.3 kmh SE 3.1 mph5.0 kmh 30.05 in1017.6 mb 0.00 in0.0 mm 0.00 in0.0 mm 0.00 in0.0 mm
03:08 PM 72.7°F22.6°C 57.0°F13.9°C 58% 3.4 mph E5.5 kmh E 7.6 mph12.2 kmh 30.05 in1017.6 mb 0.00 in0.0 mm 0.00 in0.0 mm 0.00 in0.0 mm
03:10 PM 72.7°F22.6°C 57.0°F13.9°C 58% 5.6 mph SE9.0 kmh SE 14.3 mph23.0 kmh 30.05 in1017.6 mb 0.00 in0.0 mm 0.00 in0.0 mm 0.00 in0.0 mm
03:12 PM 72.7°F22.6°C 57.0°F13.9°C 58% 4.5 mph ENE7.2 kmh ENE 6.3 mph10.1 kmh 30.05 in1017.6 mb 0.00 in0.0 mm 0.00 in0.0 mm 0.00 in0.0 mm
03:14 PM 72.7°F22.6°C 57.0°F13.9°C 58% 4.5 mph ESE7.2 kmh ESE 9.8 mph15.8 kmh 30.05 in1017.6 mb 0.00 in0.0 mm 0.00 in0.0 mm 0.00 in0.0 mm
03:16 PM 72.7°F22.6°C 56.5°F13.6°C 57% 4.3 mph NNW6.9 kmh NNW 6.9 mph11.1 kmh 30.05 in1017.6 mb 0.00 in0.0 mm 0.00 in0.0 mm 0.00 in0.0 mm
03:18 PM 72.5°F22.5°C 56.8°F13.8°C 58% 3.8 mph SSE6.1 kmh SSE 6.7 mph10.8 kmh 30.05 in1017.6 mb 0.00 in0.0 mm 0.00 in0.0 mm 0.00 in0.0 mm
03:21 PM 72.3°F22.4°C 56.7°F13.7°C 58% 3.1 mph SSE5.0 kmh SSE 4.9 mph7.9 kmh 30.05 in1017.6 mb 0.00 in0.0 mm 0.00 in0.0 mm 0.00 in0.0 mm
03:23 PM 72.5°F22.5°C 56.8°F13.8°C 58% 3.4 mph ENE5.5 kmh ENE 10.1 mph16.3 kmh 30.05 in1017.6 mb 0.00 in0.0 mm 0.00 in0.0 mm 0.00 in0.0 mm
03:25 PM 72.7°F22.6°C 57.0°F13.9°C 58% 2.0 mph ENE3.2 kmh ENE 3.6 mph5.8 kmh 30.05 in1017.6 mb 0.00 in0.0 mm 0.00 in0.0 mm 0.00 in0.0 mm
03:28 PM 72.7°F22.6°C 57.0°F13.9°C 58% 2.7 mph SE4.3 kmh SE 7.4 mph11.9 kmh 30.05 in1017.6 mb 0.00 in0.0 mm 0.00 in0.0 mm 0.00 in0.0 mm
03:30 PM 72.7°F22.6°C 57.0°F13.9°C 58% 2.2 mph ESE3.5 kmh ESE 4.5 mph7.2 kmh 30.05 in1017.6 mb 0.00 in0.0 mm 0.00 in0.0 mm 0.00 in0.0 mm
03:32 PM 72.7°F22.6°C 57.0°F13.9°C 58% 3.4 mph SSW5.5 kmh SSW 8.9 mph14.3 kmh 30.05 in1017.6 mb 0.00 in0.0 mm 0.00 in0.0 mm 0.00 in0.0 mm
03:34 PM 72.7°F22.6°C 57.0°F13.9°C 58% 2.5 mph ESE4.0 kmh ESE 3.6 mph5.8 kmh 30.05 in1017.6 mb 0.00 in0.0 mm 0.00 in0.0 mm 0.00 in0.0 mm
03:37 PM 72.7°F22.6°C 57.0°F13.9°C 58% 1.6 mph SE2.6 kmh SE 1.6 mph2.6 kmh 30.05 in1017.6 mb 0.00 in0.0 mm 0.00 in0.0 mm 0.00 in0.0 mm
03:39 PM 73.0°F22.8°C 56.8°F13.8°C 57% 1.6 mph E2.6 kmh E 4.0 mph6.4 kmh 30.05 in1017.6 mb 0.00 in0.0 mm 0.00 in0.0 mm 0.00 in0.0 mm
03:41 PM 73.0°F22.8°C 56.8°F13.8°C 57% 1.3 mph SSW2.1 kmh SSW 3.8 mph6.1 kmh 30.05 in1017.6 mb 0.00 in0.0 mm 0.00 in0.0 mm 0.00 in0.0 mm
03:43 PM 73.2°F22.9°C 57.0°F13.9°C 57% 1.3 mph 2.1 kmh 2.5 mph4.0 kmh 30.05 in1017.6 mb 0.00 in0.0 mm 0.00 in0.0 mm 0.00 in0.0 mm
03:46 PM 73.2°F22.9°C 57.0°F13.9°C 57% 1.3 mph SE2.1 kmh SE 4.5 mph7.2 kmh 30.06 in1017.9 mb 0.00 in0.0 mm 0.00 in0.0 mm 0.00 in0.0 mm
03:48 PM 73.2°F22.9°C 56.7°F13.7°C 56% 2.5 mph E4.0 kmh E 11.2 mph18.0 kmh 30.06 in1017.9 mb 0.00 in0.0 mm 0.00 in0.0 mm 0.00 in0.0 mm
03:50 PM 72.9°F22.7°C 56.7°F13.7°C 57% 2.2 mph ESE3.5 kmh ESE 4.7 mph7.6 kmh 30.06 in1017.9 mb 0.00 in0.0 mm 0.00 in0.0 mm 0.00 in0.0 mm
03:52 PM 72.7°F22.6°C 56.5°F13.6°C 57% 2.2 mph ESE3.5 kmh ESE 2.9 mph4.7 kmh 30.05 in1017.6 mb 0.00 in0.0 mm 0.00 in0.0 mm 0.00 in0.0 mm
03:54 PM 72.7°F22.6°C 56.5°F13.6°C 57% 1.3 mph S2.1 kmh S 0.9 mph1.4 kmh 30.06 in1017.9 mb 0.00 in0.0 mm 0.00 in0.0 mm 0.00 in0.0 mm
03:56 PM 72.7°F22.6°C 56.5°F13.6°C 57% 1.8 mph WNW2.9 kmh WNW 4.7 mph7.6 kmh 30.06 in1017.9 mb 0.00 in0.0 mm 0.00 in0.0 mm 0.00 in0.0 mm
03:58 PM 72.7°F22.6°C 56.5°F13.6°C 57% 1.1 mph SE1.8 kmh SE 1.8 mph2.9 kmh 30.06 in1017.9 mb 0.00 in0.0 mm 0.00 in0.0 mm 0.00 in0.0 mm
04:01 PM 72.7°F22.6°C 56.5°F13.6°C 57% 2.0 mph E3.2 kmh E 4.7 mph7.6 kmh 30.06 in1017.9 mb 0.00 in0.0 mm 0.00 in0.0 mm 0.00 in0.0 mm
04:03 PM 72.7°F22.6°C 57.0°F13.9°C 58% 1.6 mph 2.6 kmh 4.7 mph7.6 kmh 30.06 in1017.9 mb 0.00 in0.0 mm 0.00 in0.0 mm 0.00 in0.0 mm
04:05 PM 72.7°F22.6°C 57.0°F13.9°C 58% 1.1 mph WSW1.8 kmh WSW 3.6 mph5.8 kmh 30.06 in1017.9 mb 0.00 in0.0 mm 0.00 in0.0 mm 0.00 in0.0 mm
04:07 PM 72.9°F22.7°C 57.2°F14.0°C 58% 1.1 mph NNW1.8 kmh NNW 2.5 mph4.0 kmh 30.06 in1017.9 mb 0.00 in0.0 mm 0.00 in0.0 mm 0.00 in0.0 mm
04:10 PM 73.0°F22.8°C 57.4°F14.1°C 58% 0.9 mph NW1.4 kmh NW 2.2 mph3.5 kmh 30.06 in1017.9 mb 0.00 in0.0 mm 0.00 in0.0 mm 0.00 in0.0 mm
04:12 PM 73.0°F22.8°C 56.8°F13.8°C 57% 0.9 mph NNE1.4 kmh NNE 2.2 mph3.5 kmh 30.06 in1017.9 mb 0.00 in0.0 mm 0.00 in0.0 mm 0.00 in0.0 mm
04:14 PM 72.9°F22.7°C 56.7°F13.7°C 57% 1.1 mph NNE1.8 kmh NNE 3.1 mph5.0 kmh 30.06 in1017.9 mb 0.00 in0.0 mm 0.00 in0.0 mm 0.00 in0.0 mm
04:16 PM 72.9°F22.7°C 56.7°F13.7°C 57% 1.3 mph WNW2.1 kmh WNW 2.5 mph4.0 kmh 30.06 in1017.9 mb 0.00 in0.0 mm 0.00 in0.0 mm 0.00 in0.0 mm
04:18 PM 72.9°F22.7°C 56.7°F13.7°C 57% 0.7 mph ENE1.1 kmh ENE 1.1 mph1.8 kmh 30.06 in1017.9 mb 0.00 in0.0 mm 0.00 in0.0 mm 0.00 in0.0 mm
04:21 PM 72.9°F22.7°C 56.7°F13.7°C 57% 0.4 mph NNE0.6 kmh NNE -- 30.06 in1017.9 mb 0.00 in0.0 mm 0.00 in0.0 mm 0.00 in0.0 mm
04:23 PM 72.7°F22.6°C 56.5°F13.6°C 57% 1.1 mph 1.8 kmh 3.8 mph6.1 kmh 30.06 in1017.9 mb 0.00 in0.0 mm 0.00 in0.0 mm 0.00 in0.0 mm
04:25 PM 72.9°F22.7°C 57.2°F14.0°C 58% 1.1 mph NNE1.8 kmh NNE 4.9 mph7.9 kmh 30.06 in1017.9 mb 0.00 in0.0 mm 0.00 in0.0 mm 0.00 in0.0 mm
04:27 PM 72.7°F22.6°C 57.0°F13.9°C 58% 1.1 mph NW1.8 kmh NW 4.3 mph6.9 kmh 30.06 in1017.9 mb 0.00 in0.0 mm 0.00 in0.0 mm 0.00 in0.0 mm
04:30 PM 72.5°F22.5°C 56.8°F13.8°C 58% 1.3 mph SE2.1 kmh SE 2.5 mph4.0 kmh 30.07 in1018.3 mb 0.00 in0.0 mm 0.00 in0.0 mm 0.00 in0.0 mm
04:32 PM 72.3°F22.4°C 56.7°F13.7°C 58% 1.3 mph SE2.1 kmh SE 3.1 mph5.0 kmh 30.06 in1017.9 mb 0.00 in0.0 mm 0.00 in0.0 mm 0.00 in0.0 mm
04:34 PM 72.1°F22.3°C 57.0°F13.9°C 59% 0.9 mph WSW1.4 kmh WSW 1.1 mph1.8 kmh 30.06 in1017.9 mb 0.00 in0.0 mm 0.00 in0.0 mm 0.00 in0.0 mm
04:36 PM 72.1°F22.3°C 57.0°F13.9°C 59% 0.7 mph WSW1.1 kmh WSW 1.6 mph2.6 kmh 30.06 in1017.9 mb 0.00 in0.0 mm 0.00 in0.0 mm 0.00 in0.0 mm
04:39 PM 72.1°F22.3°C 57.0°F13.9°C 59% 0.4 mph ESE0.6 kmh ESE 1.8 mph2.9 kmh 30.07 in1018.3 mb 0.00 in0.0 mm 0.00 in0.0 mm 0.00 in0.0 mm
04:41 PM 71.8°F22.1°C 57.2°F14.0°C 60% 1.1 mph WNW1.8 kmh WNW 3.6 mph5.8 kmh 30.07 in1018.3 mb 0.00 in0.0 mm 0.00 in0.0 mm 0.00 in0.0 mm
04:43 PM 71.4°F21.9°C 56.8°F13.8°C 60% 1.1 mph W1.8 kmh W 3.8 mph6.1 kmh 30.07 in1018.3 mb 0.00 in0.0 mm 0.00 in0.0 mm 0.00 in0.0 mm
04:45 PM 71.2°F21.8°C 57.0°F13.9°C 61% 0.7 mph 1.1 kmh 1.8 mph2.9 kmh 30.07 in1018.3 mb 0.00 in0.0 mm 0.00 in0.0 mm 0.00 in0.0 mm
04:48 PM 71.2°F21.8°C 57.0°F13.9°C 61% 0.9 mph NNE1.4 kmh NNE 2.5 mph4.0 kmh 30.07 in1018.3 mb 0.00 in0.0 mm 0.00 in0.0 mm 0.00 in0.0 mm
04:50 PM 70.9°F21.6°C 56.8°F13.8°C 61% 2.0 mph NNE3.2 kmh NNE 4.7 mph7.6 kmh 30.07 in1018.3 mb 0.00 in0.0 mm 0.00 in0.0 mm 0.00 in0.0 mm
04:52 PM 70.9°F21.6°C 56.8°F13.8°C 61% 1.8 mph NNW2.9 kmh NNW 3.8 mph6.1 kmh 30.07 in1018.3 mb 0.00 in0.0 mm 0.00 in0.0 mm 0.00 in0.0 mm
04:54 PM 70.5°F21.4°C 56.8°F13.8°C 62% 1.8 mph ENE2.9 kmh ENE 3.8 mph6.1 kmh 30.08 in1018.6 mb 0.00 in0.0 mm 0.00 in0.0 mm 0.00 in0.0 mm
04:57 PM 70.3°F21.3°C 56.7°F13.7°C 62% 1.6 mph E2.6 kmh E 3.4 mph5.5 kmh 30.07 in1018.3 mb 0.00 in0.0 mm 0.00 in0.0 mm 0.00 in0.0 mm
04:59 PM 70.3°F21.3°C 56.7°F13.7°C 62% 1.1 mph SSE1.8 kmh SSE 2.9 mph4.7 kmh 30.08 in1018.6 mb 0.00 in0.0 mm 0.00 in0.0 mm 0.00 in0.0 mm
05:01 PM 70.2°F21.2°C 57.0°F13.9°C 63% 1.3 mph SE2.1 kmh SE 4.5 mph7.2 kmh 30.08 in1018.6 mb 0.00 in0.0 mm 0.00 in0.0 mm 0.00 in0.0 mm
05:03 PM 70.0°F21.1°C 56.8°F13.8°C 63% 1.1 mph SW1.8 kmh SW 3.8 mph6.1 kmh 30.08 in1018.6 mb 0.00 in0.0 mm 0.00 in0.0 mm 0.00 in0.0 mm
05:06 PM 69.6°F20.9°C 56.5°F13.6°C 63% 1.8 mph NE2.9 kmh NE 6.0 mph9.7 kmh 30.08 in1018.6 mb 0.00 in0.0 mm 0.00 in0.0 mm 0.00 in0.0 mm
05:08 PM 69.4°F20.8°C 56.3°F13.5°C 63% 1.8 mph 2.9 kmh 3.4 mph5.5 kmh 30.08 in1018.6 mb 0.00 in0.0 mm 0.00 in0.0 mm 0.00 in0.0 mm
05:10 PM 69.1°F20.6°C 56.5°F13.6°C 64% 1.6 mph ENE2.6 kmh ENE 2.2 mph3.5 kmh 30.08 in1018.6 mb 0.00 in0.0 mm 0.00 in0.0 mm 0.00 in0.0 mm
05:12 PM 68.9°F20.5°C 56.3°F13.5°C 64% 1.3 mph E2.1 kmh E 5.4 mph8.7 kmh 30.08 in1018.6 mb 0.00 in0.0 mm 0.00 in0.0 mm 0.00 in0.0 mm
05:15 PM 68.9°F20.5°C 56.7°F13.7°C 65% 1.1 mph ESE1.8 kmh ESE 3.8 mph6.1 kmh 30.09 in1019.0 mb 0.00 in0.0 mm 0.00 in0.0 mm 0.00 in0.0 mm
05:17 PM 68.7°F20.4°C 56.5°F13.6°C 65% 1.6 mph NW2.6 kmh NW 3.8 mph6.1 kmh 30.09 in1019.0 mb 0.00 in0.0 mm 0.00 in0.0 mm 0.00 in0.0 mm
05:19 PM 68.7°F20.4°C 56.5°F13.6°C 65% 2.0 mph ESE3.2 kmh ESE 5.4 mph8.7 kmh 30.09 in1019.0 mb 0.00 in0.0 mm 0.00 in0.0 mm 0.00 in0.0 mm
05:21 PM 68.5°F20.3°C 56.3°F13.5°C 65% 1.8 mph NNE2.9 kmh NNE 3.8 mph6.1 kmh 30.09 in1019.0 mb 0.00 in0.0 mm 0.00 in0.0 mm 0.00 in0.0 mm
05:23 PM 68.4°F20.2°C 56.5°F13.6°C 66% 1.3 mph ESE2.1 kmh ESE 4.0 mph6.4 kmh 30.09 in1019.0 mb 0.00 in0.0 mm 0.00 in0.0 mm 0.00 in0.0 mm
05:26 PM 68.2°F20.1°C 56.3°F13.5°C 66% 1.3 mph ENE2.1 kmh ENE 2.9 mph4.7 kmh 30.09 in1019.0 mb 0.00 in0.0 mm 0.00 in0.0 mm 0.00 in0.0 mm
05:28 PM 68.0°F20.0°C 56.7°F13.7°C 67% 0.9 mph NNE1.4 kmh NNE 1.6 mph2.6 kmh 30.09 in1019.0 mb 0.00 in0.0 mm 0.00 in0.0 mm 0.00 in0.0 mm
05:30 PM 67.8°F19.9°C 56.5°F13.6°C 67% 1.3 mph NE2.1 kmh NE 2.7 mph4.3 kmh 30.09 in1019.0 mb 0.00 in0.0 mm 0.00 in0.0 mm 0.00 in0.0 mm
05:33 PM 67.8°F19.9°C 56.5°F13.6°C 67% 1.1 mph NE1.8 kmh NE 5.4 mph8.7 kmh 30.09 in1019.0 mb 0.00 in0.0 mm 0.00 in0.0 mm 0.00 in0.0 mm
05:35 PM 67.6°F19.8°C 56.7°F13.7°C 68% 1.1 mph S1.8 kmh S 5.6 mph9.0 kmh 30.09 in1019.0 mb 0.00 in0.0 mm 0.00 in0.0 mm 0.00 in0.0 mm
05:37 PM 67.6°F19.8°C 56.7°F13.7°C 68% 1.1 mph SE1.8 kmh SE 3.8 mph6.1 kmh 30.09 in1019.0 mb 0.00 in0.0 mm 0.00 in0.0 mm 0.00 in0.0 mm
05:39 PM 67.3°F19.6°C 56.3°F13.5°C 68% 0.9 mph ENE1.4 kmh ENE 3.6 mph5.8 kmh 30.09 in1019.0 mb 0.00 in0.0 mm 0.00 in0.0 mm 0.00 in0.0 mm
05:42 PM 67.3°F19.6°C 56.3°F13.5°C 68% 0.7 mph E1.1 kmh E 1.3 mph2.1 kmh 30.09 in1019.0 mb 0.00 in0.0 mm 0.00 in0.0 mm 0.00 in0.0 mm
05:44 PM 67.1°F19.5°C 56.1°F13.4°C 68% 0.4 mph SSE0.6 kmh SSE 1.6 mph2.6 kmh 30.09 in1019.0 mb 0.00 in0.0 mm 0.00 in0.0 mm 0.00 in0.0 mm
05:46 PM 66.9°F19.4°C 55.9°F13.3°C 68% 0.4 mph SE0.6 kmh SE 1.6 mph2.6 kmh 30.09 in1019.0 mb 0.00 in0.0 mm 0.00 in0.0 mm 0.00 in0.0 mm
05:48 PM 66.9°F19.4°C 55.9°F13.3°C 68% 0.7 mph 1.1 kmh 2.0 mph3.2 kmh 30.09 in1019.0 mb 0.00 in0.0 mm 0.00 in0.0 mm 0.00 in0.0 mm
05:51 PM 66.7°F19.3°C 55.8°F13.2°C 68% 0.4 mph SW0.6 kmh SW -- 30.09 in1019.0 mb 0.00 in0.0 mm 0.00 in0.0 mm 0.00 in0.0 mm
05:53 PM 66.7°F19.3°C 56.3°F13.5°C 69% 0.7 mph ESE1.1 kmh ESE 4.0 mph6.4 kmh 30.10 in1019.3 mb 0.00 in0.0 mm 0.00 in0.0 mm 0.00 in0.0 mm
05:55 PM 66.7°F19.3°C 56.3°F13.5°C 69% 0.7 mph SW1.1 kmh SW 1.3 mph2.1 kmh 30.10 in1019.3 mb 0.00 in0.0 mm 0.00 in0.0 mm 0.00 in0.0 mm
05:57 PM 66.6°F19.2°C 56.1°F13.4°C 69% 1.1 mph ENE1.8 kmh ENE 3.4 mph5.5 kmh 30.09 in1019.0 mb 0.00 in0.0 mm 0.00 in0.0 mm 0.00 in0.0 mm
05:59 PM 66.4°F19.1°C 55.9°F13.3°C 69% 0.9 mph S1.4 kmh S 1.6 mph2.6 kmh 30.10 in1019.3 mb 0.00 in0.0 mm 0.00 in0.0 mm 0.00 in0.0 mm
06:01 PM 66.4°F19.1°C 56.3°F13.5°C 70% 0.4 mph SSE0.6 kmh SSE -- 30.10 in1019.3 mb 0.00 in0.0 mm 0.00 in0.0 mm 0.00 in0.0 mm
06:03 PM 66.4°F19.1°C 56.3°F13.5°C 70% 0.2 mph NNW0.3 kmh NNW -- 30.10 in1019.3 mb 0.00 in0.0 mm 0.00 in0.0 mm 0.00 in0.0 mm
06:06 PM 66.2°F19.0°C 56.1°F13.4°C 70% 0.7 mph NW1.1 kmh NW 3.4 mph5.5 kmh 30.10 in1019.3 mb 0.00 in0.0 mm 0.00 in0.0 mm 0.00 in0.0 mm
06:08 PM 66.2°F19.0°C 56.1°F13.4°C 70% 0.4 mph SSE0.6 kmh SSE -- 30.10 in1019.3 mb 0.00 in0.0 mm 0.00 in0.0 mm 0.00 in0.0 mm
06:10 PM 66.0°F18.9°C 55.9°F13.3°C 70% 0.2 mph SSE0.3 kmh SSE -- 30.10 in1019.3 mb 0.00 in0.0 mm 0.00 in0.0 mm 0.00 in0.0 mm
06:12 PM 66.0°F18.9°C 56.3°F13.5°C 71% 0.4 mph NNW0.6 kmh NNW 2.7 mph4.3 kmh 30.10 in1019.3 mb 0.00 in0.0 mm 0.00 in0.0 mm 0.00 in0.0 mm
06:14 PM 66.0°F18.9°C 56.3°F13.5°C 71% 0.9 mph WSW1.4 kmh WSW 3.6 mph5.8 kmh 30.10 in1019.3 mb 0.00 in0.0 mm 0.00 in0.0 mm 0.00 in0.0 mm
06:17 PM 66.0°F18.9°C 56.3°F13.5°C 71% 0.4 mph SW0.6 kmh SW -- 30.10 in1019.3 mb 0.00 in0.0 mm 0.00 in0.0 mm 0.00 in0.0 mm
06:19 PM 66.0°F18.9°C 56.3°F13.5°C 71% 0.2 mph SE0.3 kmh SE -- 30.11 in1019.6 mb 0.00 in0.0 mm 0.00 in0.0 mm 0.00 in0.0 mm
06:21 PM 65.8°F18.8°C 56.1°F13.4°C 71% 0.2 mph E0.3 kmh E -- 30.11 in1019.6 mb 0.00 in0.0 mm 0.00 in0.0 mm 0.00 in0.0 mm
06:23 PM 65.8°F18.8°C 56.1°F13.4°C 71% 0.2 mph ENE0.3 kmh ENE -- 30.11 in1019.6 mb 0.00 in0.0 mm 0.00 in0.0 mm 0.00 in0.0 mm
06:26 PM 65.8°F18.8°C 56.1°F13.4°C 71% 0.4 mph ENE0.6 kmh ENE 1.1 mph1.8 kmh 30.11 in1019.6 mb 0.00 in0.0 mm 0.00 in0.0 mm 0.00 in0.0 mm
06:28 PM 65.7°F18.7°C 55.9°F13.3°C 71% 0.7 mph E1.1 kmh E 3.6 mph5.8 kmh 30.11 in1019.6 mb 0.00 in0.0 mm 0.00 in0.0 mm 0.00 in0.0 mm
06:30 PM 65.7°F18.7°C 55.9°F13.3°C 71% 1.3 mph NE2.1 kmh NE 3.6 mph5.8 kmh 30.11 in1019.6 mb 0.00 in0.0 mm 0.00 in0.0 mm 0.00 in0.0 mm
06:32 PM 65.7°F18.7°C 55.9°F13.3°C 71% 2.2 mph E3.5 kmh E 4.7 mph7.6 kmh 30.11 in1019.6 mb 0.00 in0.0 mm 0.00 in0.0 mm 0.00 in0.0 mm
06:35 PM 65.7°F18.7°C 55.9°F13.3°C 71% 2.7 mph E4.3 kmh E 4.7 mph7.6 kmh 30.11 in1019.6 mb 0.00 in0.0 mm 0.00 in0.0 mm 0.00 in0.0 mm
06:37 PM 65.5°F18.6°C 56.3°F13.5°C 72% 4.5 mph ESE7.2 kmh ESE 7.2 mph11.6 kmh 30.11 in1019.6 mb 0.00 in0.0 mm 0.00 in0.0 mm 0.00 in0.0 mm
06:39 PM 65.7°F18.7°C 56.3°F13.5°C 72% 5.6 mph E9.0 kmh E 9.8 mph15.8 kmh 30.11 in1019.6 mb 0.00 in0.0 mm 0.00 in0.0 mm 0.00 in0.0 mm
06:41 PM 65.7°F18.7°C 56.3°F13.5°C 72% 5.8 mph ESE9.3 kmh ESE 8.5 mph13.7 kmh 30.11 in1019.6 mb 0.00 in0.0 mm 0.00 in0.0 mm 0.00 in0.0 mm
06:43 PM 65.8°F18.8°C 56.5°F13.6°C 72% 5.4 mph ESE8.7 kmh ESE 6.3 mph10.1 kmh 30.11 in1019.6 mb 0.00 in0.0 mm 0.00 in0.0 mm 0.00 in0.0 mm
06:46 PM 65.8°F18.8°C 56.5°F13.6°C 72% 3.6 mph ENE5.8 kmh ENE 3.8 mph6.1 kmh 30.11 in1019.6 mb 0.00 in0.0 mm 0.00 in0.0 mm 0.00 in0.0 mm
06:48 PM 65.8°F18.8°C 56.5°F13.6°C 72% 2.0 mph NE3.2 kmh NE 1.6 mph2.6 kmh 30.11 in1019.6 mb 0.00 in0.0 mm 0.00 in0.0 mm 0.00 in0.0 mm
06:50 PM 65.8°F18.8°C 56.5°F13.6°C 72% 1.3 mph SE2.1 kmh SE 2.0 mph3.2 kmh 30.11 in1019.6 mb 0.00 in0.0 mm 0.00 in0.0 mm 0.00 in0.0 mm
06:52 PM 65.8°F18.8°C 56.5°F13.6°C 72% 2.7 mph E4.3 kmh E 5.1 mph8.2 kmh 30.11 in1019.6 mb 0.00 in0.0 mm 0.00 in0.0 mm 0.00 in0.0 mm
06:54 PM 65.8°F18.8°C 56.5°F13.6°C 72% 3.4 mph ESE5.5 kmh ESE 5.8 mph9.3 kmh 30.11 in1019.6 mb 0.00 in0.0 mm 0.00 in0.0 mm 0.00 in0.0 mm
06:57 PM 65.8°F18.8°C 56.5°F13.6°C 72% 3.8 mph ESE6.1 kmh ESE 5.6 mph9.0 kmh 30.11 in1019.6 mb 0.00 in0.0 mm 0.00 in0.0 mm 0.00 in0.0 mm
06:59 PM 65.7°F18.7°C 56.3°F13.5°C 72% 3.8 mph ENE6.1 kmh ENE 4.7 mph7.6 kmh 30.11 in1019.6 mb 0.00 in0.0 mm 0.00 in0.0 mm 0.00 in0.0 mm
07:01 PM 65.5°F18.6°C 56.3°F13.5°C 72% 3.8 mph ESE6.1 kmh ESE 6.9 mph11.1 kmh 30.12 in1020.0 mb 0.00 in0.0 mm 0.00 in0.0 mm 0.00 in0.0 mm
07:03 PM 65.5°F18.6°C 56.3°F13.5°C 72% 4.9 mph ESE7.9 kmh ESE 7.4 mph11.9 kmh 30.12 in1020.0 mb 0.00 in0.0 mm 0.00 in0.0 mm 0.00 in0.0 mm
07:06 PM 65.5°F18.6°C 56.7°F13.7°C 73% 4.5 mph E7.2 kmh E 4.7 mph7.6 kmh 30.12 in1020.0 mb 0.00 in0.0 mm 0.00 in0.0 mm 0.00 in0.0 mm
07:08 PM 65.3°F18.5°C 56.5°F13.6°C 73% 4.0 mph SE6.4 kmh SE 5.4 mph8.7 kmh 30.11 in1019.6 mb 0.00 in0.0 mm 0.00 in0.0 mm 0.00 in0.0 mm
07:10 PM 65.3°F18.5°C 56.5°F13.6°C 73% 2.7 mph SE4.3 kmh SE 2.5 mph4.0 kmh 30.12 in1020.0 mb 0.00 in0.0 mm 0.00 in0.0 mm 0.00 in0.0 mm
07:12 PM 65.3°F18.5°C 56.5°F13.6°C 73% 2.5 mph ESE4.0 kmh ESE 3.4 mph5.5 kmh 30.12 in1020.0 mb 0.00 in0.0 mm 0.00 in0.0 mm 0.00 in0.0 mm
07:15 PM 65.1°F18.4°C 56.3°F13.5°C 73% 2.5 mph E4.0 kmh E 4.9 mph7.9 kmh 30.11 in1019.6 mb 0.00 in0.0 mm 0.00 in0.0 mm 0.00 in0.0 mm
07:17 PM 65.1°F18.4°C 56.3°F13.5°C 73% 2.9 mph ESE4.7 kmh ESE 4.0 mph6.4 kmh 30.11 in1019.6 mb 0.00 in0.0 mm 0.00 in0.0 mm 0.00 in0.0 mm
07:19 PM 65.1°F18.4°C 56.3°F13.5°C 73% 4.7 mph ESE7.6 kmh ESE 7.4 mph11.9 kmh 30.11 in1019.6 mb 0.00 in0.0 mm 0.00 in0.0 mm 0.00 in0.0 mm
07:21 PM 64.9°F18.3°C 56.5°F13.6°C 74% 4.3 mph SE6.9 kmh SE 5.8 mph9.3 kmh 30.12 in1020.0 mb 0.00 in0.0 mm 0.00 in0.0 mm 0.00 in0.0 mm
07:23 PM 64.9°F18.3°C 56.5°F13.6°C 74% 4.0 mph E6.4 kmh E 8.1 mph13.0 kmh 30.11 in1019.6 mb 0.00 in0.0 mm 0.00 in0.0 mm 0.00 in0.0 mm
07:26 PM 64.8°F18.2°C 55.9°F13.3°C 73% 2.9 mph SE4.7 kmh SE 3.4 mph5.5 kmh 30.12 in1020.0 mb 0.00 in0.0 mm 0.00 in0.0 mm 0.00 in0.0 mm
07:28 PM 64.6°F18.1°C 55.8°F13.2°C 73% 2.5 mph SE4.0 kmh SE 2.9 mph4.7 kmh 30.12 in1020.0 mb 0.00 in0.0 mm 0.00 in0.0 mm 0.00 in0.0 mm
07:30 PM 64.6°F18.1°C 56.1°F13.4°C 74% 3.1 mph SE5.0 kmh SE 5.6 mph9.0 kmh 30.12 in1020.0 mb 0.00 in0.0 mm 0.00 in0.0 mm 0.00 in0.0 mm
07:32 PM 64.6°F18.1°C 56.1°F13.4°C 74% 2.9 mph SE4.7 kmh SE 4.3 mph6.9 kmh 30.12 in1020.0 mb 0.00 in0.0 mm 0.00 in0.0 mm 0.00 in0.0 mm
07:35 PM 64.4°F18.0°C 55.9°F13.3°C 74% 2.9 mph ESE4.7 kmh ESE 5.1 mph8.2 kmh 30.12 in1020.0 mb 0.00 in0.0 mm 0.00 in0.0 mm 0.00 in0.0 mm
07:37 PM 64.2°F17.9°C 55.8°F13.2°C 74% 3.1 mph SE5.0 kmh SE 5.6 mph9.0 kmh 30.12 in1020.0 mb 0.00 in0.0 mm 0.00 in0.0 mm 0.00 in0.0 mm
07:39 PM 64.2°F17.9°C 56.1°F13.4°C 75% 3.1 mph ESE5.0 kmh ESE 4.3 mph6.9 kmh 30.12 in1020.0 mb 0.00 in0.0 mm 0.00 in0.0 mm 0.00 in0.0 mm
07:41 PM 64.2°F17.9°C 56.1°F13.4°C 75% 3.1 mph SE5.0 kmh SE 3.6 mph5.8 kmh 30.13 in1020.3 mb 0.00 in0.0 mm 0.00 in0.0 mm 0.00 in0.0 mm
07:43 PM 64.2°F17.9°C 56.1°F13.4°C 75% 3.8 mph ESE6.1 kmh ESE 5.8 mph9.3 kmh 30.13 in1020.3 mb 0.00 in0.0 mm 0.00 in0.0 mm 0.00 in0.0 mm
07:46 PM 64.2°F17.9°C 56.1°F13.4°C 75% 4.0 mph ESE6.4 kmh ESE 5.4 mph8.7 kmh 30.12 in1020.0 mb 0.00 in0.0 mm 0.00 in0.0 mm 0.00 in0.0 mm
07:48 PM 64.0°F17.8°C 55.9°F13.3°C 75% 4.3 mph SE6.9 kmh SE 5.1 mph8.2 kmh 30.12 in1020.0 mb 0.00 in0.0 mm 0.00 in0.0 mm 0.00 in0.0 mm
07:50 PM 64.0°F17.8°C 55.9°F13.3°C 75% 4.0 mph E6.4 kmh E 4.7 mph7.6 kmh 30.13 in1020.3 mb 0.00 in0.0 mm 0.00 in0.0 mm 0.00 in0.0 mm
07:52 PM 63.9°F17.7°C 55.8°F13.2°C 75% 3.8 mph NE6.1 kmh NE 4.5 mph7.2 kmh 30.13 in1020.3 mb 0.00 in0.0 mm 0.00 in0.0 mm 0.00 in0.0 mm
07:54 PM 63.7°F17.6°C 55.6°F13.1°C 75% 3.6 mph ESE5.8 kmh ESE 5.1 mph8.2 kmh 30.13 in1020.3 mb 0.00 in0.0 mm 0.00 in0.0 mm 0.00 in0.0 mm
07:56 PM 63.7°F17.6°C 55.6°F13.1°C 75% 3.6 mph SE5.8 kmh SE 5.1 mph8.2 kmh 30.13 in1020.3 mb 0.00 in0.0 mm 0.00 in0.0 mm 0.00 in0.0 mm
07:59 PM 63.5°F17.5°C 55.4°F13.0°C 75% 2.2 mph E3.5 kmh E 2.0 mph3.2 kmh 30.13 in1020.3 mb 0.00 in0.0 mm 0.00 in0.0 mm 0.00 in0.0 mm
08:01 PM 63.5°F17.5°C 55.4°F13.0°C 75% 1.8 mph SSE2.9 kmh SSE 3.4 mph5.5 kmh 30.13 in1020.3 mb 0.00 in0.0 mm 0.00 in0.0 mm 0.00 in0.0 mm
08:03 PM 63.5°F17.5°C 55.4°F13.0°C 75% 1.1 mph ESE1.8 kmh ESE 2.9 mph4.7 kmh 30.13 in1020.3 mb 0.00 in0.0 mm 0.00 in0.0 mm 0.00 in0.0 mm
08:06 PM 63.3°F17.4°C 55.2°F12.9°C 75% 0.9 mph SSE1.4 kmh SSE 3.8 mph6.1 kmh 30.13 in1020.3 mb 0.00 in0.0 mm 0.00 in0.0 mm 0.00 in0.0 mm
08:08 PM 63.3°F17.4°C 55.2°F12.9°C 75% 1.3 mph ESE2.1 kmh ESE 2.9 mph4.7 kmh 30.13 in1020.3 mb 0.00 in0.0 mm 0.00 in0.0 mm 0.00 in0.0 mm
08:10 PM 63.3°F17.4°C 55.2°F12.9°C 75% 2.0 mph E3.2 kmh E 4.0 mph6.4 kmh 30.13 in1020.3 mb 0.00 in0.0 mm 0.00 in0.0 mm 0.00 in0.0 mm
08:12 PM 63.3°F17.4°C 55.2°F12.9°C 75% 2.0 mph E3.2 kmh E 3.4 mph5.5 kmh 30.13 in1020.3 mb 0.00 in0.0 mm 0.00 in0.0 mm 0.00 in0.0 mm
08:15 PM 63.3°F17.4°C 55.2°F12.9°C 75% 2.2 mph E3.5 kmh E 5.4 mph8.7 kmh 30.13 in1020.3 mb 0.00 in0.0 mm 0.00 in0.0 mm 0.00 in0.0 mm
08:17 PM 63.3°F17.4°C 55.2°F12.9°C 75% 2.7 mph ENE4.3 kmh ENE 4.7 mph7.6 kmh 30.13 in1020.3 mb 0.00 in0.0 mm 0.00 in0.0 mm 0.00 in0.0 mm
08:19 PM 63.3°F17.4°C 55.2°F12.9°C 75% 2.2 mph ESE3.5 kmh ESE 2.9 mph4.7 kmh 30.13 in1020.3 mb 0.00 in0.0 mm 0.00 in0.0 mm 0.00 in0.0 mm
08:21 PM 63.3°F17.4°C 55.2°F12.9°C 75% 2.0 mph E3.2 kmh E 4.3 mph6.9 kmh 30.13 in1020.3 mb 0.00 in0.0 mm 0.00 in0.0 mm 0.00 in0.0 mm
08:23 PM 63.3°F17.4°C 55.2°F12.9°C 75% 2.0 mph NNE3.2 kmh NNE 2.9 mph4.7 kmh 30.13 in1020.3 mb 0.00 in0.0 mm 0.00 in0.0 mm 0.00 in0.0 mm
08:26 PM 63.3°F17.4°C 55.2°F12.9°C 75% 1.6 mph E2.6 kmh E 2.5 mph4.0 kmh 30.14 in1020.7 mb 0.00 in0.0 mm 0.00 in0.0 mm 0.00 in0.0 mm
08:28 PM 63.3°F17.4°C 55.2°F12.9°C 75% 1.3 mph NE2.1 kmh NE 2.5 mph4.0 kmh 30.14 in1020.7 mb 0.00 in0.0 mm 0.00 in0.0 mm 0.00 in0.0 mm
08:30 PM 63.3°F17.4°C 55.2°F12.9°C 75% 1.3 mph SSW2.1 kmh SSW 2.7 mph4.3 kmh 30.14 in1020.7 mb 0.00 in0.0 mm 0.00 in0.0 mm 0.00 in0.0 mm
08:32 PM 63.3°F17.4°C 55.2°F12.9°C 75% 1.3 mph NNW2.1 kmh NNW 3.4 mph5.5 kmh 30.14 in1020.7 mb 0.00 in0.0 mm 0.00 in0.0 mm 0.00 in0.0 mm
08:35 PM 63.3°F17.4°C 55.2°F12.9°C 75% 1.3 mph NE2.1 kmh NE 2.5 mph4.0 kmh 30.14 in1020.7 mb 0.00 in0.0 mm 0.00 in0.0 mm 0.00 in0.0 mm
08:37 PM 63.3°F17.4°C 55.2°F12.9°C 75% 1.6 mph ESE2.6 kmh ESE 4.0 mph6.4 kmh 30.14 in1020.7 mb 0.00 in0.0 mm 0.00 in0.0 mm 0.00 in0.0 mm
08:39 PM 63.1°F17.3°C 55.0°F12.8°C 75% 2.2 mph ESE3.5 kmh ESE 4.5 mph7.2 kmh 30.14 in1020.7 mb 0.00 in0.0 mm 0.00 in0.0 mm 0.00 in0.0 mm
08:41 PM 63.1°F17.3°C 55.0°F12.8°C 75% 2.7 mph E4.3 kmh E 4.9 mph7.9 kmh 30.14 in1020.7 mb 0.00 in0.0 mm 0.00 in0.0 mm 0.00 in0.0 mm
08:43 PM 63.1°F17.3°C 55.0°F12.8°C 75% 2.0 mph ENE3.2 kmh ENE 2.2 mph3.5 kmh 30.14 in1020.7 mb 0.00 in0.0 mm 0.00 in0.0 mm 0.00 in0.0 mm
08:46 PM 63.1°F17.3°C 55.0°F12.8°C 75% 1.6 mph E2.6 kmh E 2.2 mph3.5 kmh 30.14 in1020.7 mb 0.00 in0.0 mm 0.00 in0.0 mm 0.00 in0.0 mm
08:48 PM 63.1°F17.3°C 55.0°F12.8°C 75% 2.0 mph NE3.2 kmh NE 3.8 mph6.1 kmh 30.14 in1020.7 mb 0.00 in0.0 mm 0.00 in0.0 mm 0.00 in0.0 mm
08:50 PM 63.1°F17.3°C 55.0°F12.8°C 75% 1.8 mph NE2.9 kmh NE 3.6 mph5.8 kmh 30.14 in1020.7 mb 0.00 in0.0 mm 0.00 in0.0 mm 0.00 in0.0 mm
08:53 PM 63.1°F17.3°C 55.0°F12.8°C 75% 1.8 mph ENE2.9 kmh ENE 3.8 mph6.1 kmh 30.14 in1020.7 mb 0.00 in0.0 mm 0.00 in0.0 mm 0.00 in0.0 mm
08:55 PM 63.1°F17.3°C 55.4°F13.0°C 76% 1.6 mph ENE2.6 kmh ENE 3.6 mph5.8 kmh 30.15 in1021.0 mb 0.00 in0.0 mm 0.00 in0.0 mm 0.00 in0.0 mm
08:57 PM 63.1°F17.3°C 55.4°F13.0°C 76% 1.6 mph ENE2.6 kmh ENE 2.9 mph4.7 kmh 30.14 in1020.7 mb 0.00 in0.0 mm 0.00 in0.0 mm 0.00 in0.0 mm
08:59 PM 63.1°F17.3°C 55.4°F13.0°C 76% 1.3 mph ESE2.1 kmh ESE 2.2 mph3.5 kmh 30.15 in1021.0 mb 0.00 in0.0 mm 0.00 in0.0 mm 0.00 in0.0 mm
09:02 PM 63.1°F17.3°C 55.4°F13.0°C 76% 1.3 mph NE2.1 kmh NE 3.6 mph5.8 kmh 30.14 in1020.7 mb 0.00 in0.0 mm 0.00 in0.0 mm 0.00 in0.0 mm
09:04 PM 63.1°F17.3°C 55.4°F13.0°C 76% 0.9 mph SE1.4 kmh SE 0.9 mph1.4 kmh 30.14 in1020.7 mb 0.00 in0.0 mm 0.00 in0.0 mm 0.00 in0.0 mm
09:06 PM 63.1°F17.3°C 55.4°F13.0°C 76% 0.4 mph ENE0.6 kmh ENE -- 30.14 in1020.7 mb 0.00 in0.0 mm 0.00 in0.0 mm 0.00 in0.0 mm
09:08 PM 63.1°F17.3°C 55.4°F13.0°C 76% 0.9 mph 1.4 kmh 2.7 mph4.3 kmh 30.14 in1020.7 mb 0.00 in0.0 mm 0.00 in0.0 mm 0.00 in0.0 mm
09:10 PM 63.1°F17.3°C 55.4°F13.0°C 76% 0.4 mph ENE0.6 kmh ENE -- 30.14 in1020.7 mb 0.00 in0.0 mm 0.00 in0.0 mm 0.00 in0.0 mm
09:12 PM 63.1°F17.3°C 55.4°F13.0°C 76% 0.4 mph ESE0.6 kmh ESE 1.1 mph1.8 kmh 30.15 in1021.0 mb 0.00 in0.0 mm 0.00 in0.0 mm 0.00 in0.0 mm
09:15 PM 63.0°F17.2°C 55.2°F12.9°C 76% 0.2 mph SSE0.3 kmh SSE -- 30.15 in1021.0 mb 0.00 in0.0 mm 0.00 in0.0 mm 0.00 in0.0 mm
09:17 PM 63.0°F17.2°C 55.2°F12.9°C 76% 0.4 mph E0.6 kmh E 1.8 mph2.9 kmh 30.15 in1021.0 mb 0.00 in0.0 mm 0.00 in0.0 mm 0.00 in0.0 mm
09:19 PM 63.0°F17.2°C 55.2°F12.9°C 76% 0.2 mph NE0.3 kmh NE -- 30.14 in1020.7 mb 0.00 in0.0 mm 0.00 in0.0 mm 0.00 in0.0 mm
09:21 PM 63.0°F17.2°C 55.2°F12.9°C 76% 0.2 mph SSE0.3 kmh SSE -- 30.15 in1021.0 mb 0.00 in0.0 mm 0.00 in0.0 mm 0.00 in0.0 mm
09:24 PM 62.8°F17.1°C 55.0°F12.8°C 76% 0.2 mph ENE0.3 kmh ENE -- 30.15 in1021.0 mb 0.00 in0.0 mm 0.00 in0.0 mm 0.00 in0.0 mm
09:26 PM 62.8°F17.1°C 55.0°F12.8°C 76% 0.2 mph E0.3 kmh E 0.7 mph1.1 kmh 30.15 in1021.0 mb 0.00 in0.0 mm 0.00 in0.0 mm 0.00 in0.0 mm
09:28 PM 62.8°F17.1°C 55.0°F12.8°C 76% 0.2 mph SE0.3 kmh SE -- 30.15 in1021.0 mb 0.00 in0.0 mm 0.00 in0.0 mm 0.00 in0.0 mm
09:30 PM 62.8°F17.1°C 55.0°F12.8°C 76% 0.2 mph ESE0.3 kmh ESE -- 30.15 in1021.0 mb 0.00 in0.0 mm 0.00 in0.0 mm 0.00 in0.0 mm
09:32 PM 62.8°F17.1°C 55.0°F12.8°C 76% 0.2 mph E0.3 kmh E 0.9 mph1.4 kmh 30.15 in1021.0 mb 0.00 in0.0 mm 0.00 in0.0 mm 0.00 in0.0 mm
09:34 PM 62.8°F17.1°C 55.4°F13.0°C 77% 0.2 mph E0.3 kmh E -- 30.16 in1021.3 mb 0.00 in0.0 mm 0.00 in0.0 mm 0.00 in0.0 mm
09:37 PM 62.8°F17.1°C 55.4°F13.0°C 77% 0.2 mph ESE0.3 kmh ESE 1.1 mph1.8 kmh 30.16 in1021.3 mb 0.00 in0.0 mm 0.00 in0.0 mm 0.00 in0.0 mm
09:39 PM 63.0°F17.2°C 55.6°F13.1°C 77% 0.7 mph ESE1.1 kmh ESE 3.6 mph5.8 kmh 30.16 in1021.3 mb 0.00 in0.0 mm 0.00 in0.0 mm 0.00 in0.0 mm
09:41 PM 63.0°F17.2°C 55.6°F13.1°C 77% 0.7 mph ENE1.1 kmh ENE 1.6 mph2.6 kmh 30.16 in1021.3 mb 0.00 in0.0 mm 0.00 in0.0 mm 0.00 in0.0 mm
09:43 PM 63.1°F17.3°C 55.8°F13.2°C 77% 0.7 mph SE1.1 kmh SE 2.0 mph3.2 kmh 30.16 in1021.3 mb 0.00 in0.0 mm 0.00 in0.0 mm 0.00 in0.0 mm
09:46 PM 63.3°F17.4°C 55.9°F13.3°C 77% 0.4 mph E0.6 kmh E -- 30.15 in1021.0 mb 0.00 in0.0 mm 0.00 in0.0 mm 0.00 in0.0 mm
09:48 PM 63.3°F17.4°C 55.6°F13.1°C 76% 0.2 mph W0.3 kmh W -- 30.16 in1021.3 mb 0.00 in0.0 mm 0.00 in0.0 mm 0.00 in0.0 mm
09:50 PM 63.5°F17.5°C 55.8°F13.2°C 76% 0.2 mph ESE0.3 kmh ESE 1.3 mph2.1 kmh 30.16 in1021.3 mb 0.00 in0.0 mm 0.00 in0.0 mm 0.00 in0.0 mm
09:53 PM 63.5°F17.5°C 55.8°F13.2°C 76% 0.2 mph ENE0.3 kmh ENE -- 30.16 in1021.3 mb 0.00 in0.0 mm 0.00 in0.0 mm 0.00 in0.0 mm
09:55 PM 63.7°F17.6°C 55.9°F13.3°C 76% 0.2 mph NNW0.3 kmh NNW -- 30.16 in1021.3 mb 0.00 in0.0 mm 0.00 in0.0 mm 0.00 in0.0 mm
09:57 PM 63.7°F17.6°C 55.9°F13.3°C 76% 0.2 mph NNW0.3 kmh NNW -- 30.16 in1021.3 mb 0.00 in0.0 mm 0.00 in0.0 mm 0.00 in0.0 mm
09:59 PM 63.7°F17.6°C 55.9°F13.3°C 76% 0.2 mph NW0.3 kmh NW -- 30.16 in1021.3 mb 0.00 in0.0 mm 0.00 in0.0 mm 0.00 in0.0 mm
10:01 PM 63.9°F17.7°C 56.1°F13.4°C 76% 0.2 mph W0.3 kmh W -- 30.16 in1021.3 mb 0.00 in0.0 mm 0.00 in0.0 mm 0.00 in0.0 mm
10:04 PM 64.0°F17.8°C 56.3°F13.5°C 76% 0.2 mph SE0.3 kmh SE -- 30.16 in1021.3 mb 0.00 in0.0 mm 0.00 in0.0 mm 0.00 in0.0 mm
10:06 PM 64.0°F17.8°C 56.3°F13.5°C 76% 0.2 mph WNW0.3 kmh WNW -- 30.16 in1021.3 mb 0.00 in0.0 mm 0.00 in0.0 mm 0.00 in0.0 mm
10:08 PM 64.0°F17.8°C 55.9°F13.3°C 75% 0.2 mph NW0.3 kmh NW -- 30.16 in1021.3 mb 0.00 in0.0 mm 0.00 in0.0 mm 0.00 in0.0 mm
10:10 PM 64.0°F17.8°C 55.9°F13.3°C 75% 0.2 mph 0.3 kmh -- 30.16 in1021.3 mb 0.00 in0.0 mm 0.00 in0.0 mm 0.00 in0.0 mm
10:13 PM 64.0°F17.8°C 55.9°F13.3°C 75% 0.2 mph 0.3 kmh -- 30.16 in1021.3 mb 0.00 in0.0 mm 0.00 in0.0 mm 0.00 in0.0 mm
10:15 PM 64.0°F17.8°C 55.6°F13.1°C 74% 0.2 mph 0.3 kmh -- 30.16 in1021.3 mb 0.00 in0.0 mm 0.00 in0.0 mm 0.00 in0.0 mm
10:17 PM 64.0°F17.8°C 55.6°F13.1°C 74% 0.2 mph NNE0.3 kmh NNE -- 30.16 in1021.3 mb 0.00 in0.0 mm 0.00 in0.0 mm 0.00 in0.0 mm
10:20 PM 64.0°F17.8°C 55.6°F13.1°C 74% 0.2 mph ESE0.3 kmh ESE -- 30.16 in1021.3 mb 0.00 in0.0 mm 0.00 in0.0 mm 0.00 in0.0 mm
10:22 PM 64.0°F17.8°C 55.6°F13.1°C 74% 0.2 mph SSE0.3 kmh SSE -- 30.16 in1021.3 mb 0.00 in0.0 mm 0.00 in0.0 mm 0.00 in0.0 mm
10:24 PM 64.0°F17.8°C 55.6°F13.1°C 74% 0.2 mph SSE0.3 kmh SSE -- 30.15 in1021.0 mb 0.00 in0.0 mm 0.00 in0.0 mm 0.00 in0.0 mm
10:26 PM 64.0°F17.8°C 55.6°F13.1°C 74% 0.2 mph SSE0.3 kmh SSE -- 30.15 in1021.0 mb 0.00 in0.0 mm 0.00 in0.0 mm 0.00 in0.0 mm
10:29 PM 64.0°F17.8°C 55.6°F13.1°C 74% 0.4 mph SE0.6 kmh SE 1.6 mph2.6 kmh 30.16 in1021.3 mb 0.00 in0.0 mm 0.00 in0.0 mm 0.00 in0.0 mm
10:31 PM 64.0°F17.8°C 55.6°F13.1°C 74% 0.9 mph SSE1.4 kmh SSE 2.9 mph4.7 kmh 30.16 in1021.3 mb 0.00 in0.0 mm 0.00 in0.0 mm 0.00 in0.0 mm
10:33 PM 64.2°F17.9°C 55.8°F13.2°C 74% 0.9 mph ESE1.4 kmh ESE 2.0 mph3.2 kmh 30.16 in1021.3 mb 0.00 in0.0 mm 0.00 in0.0 mm 0.00 in0.0 mm
10:35 PM 64.2°F17.9°C 55.8°F13.2°C 74% 1.8 mph SE2.9 kmh SE 3.6 mph5.8 kmh 30.16 in1021.3 mb 0.00 in0.0 mm 0.00 in0.0 mm 0.00 in0.0 mm
10:37 PM 64.2°F17.9°C 56.1°F13.4°C 75% 2.0 mph SE3.2 kmh SE 2.7 mph4.3 kmh 30.16 in1021.3 mb 0.00 in0.0 mm 0.00 in0.0 mm 0.00 in0.0 mm
10:40 PM 64.0°F17.8°C 55.9°F13.3°C 75% 2.0 mph ESE3.2 kmh ESE 2.7 mph4.3 kmh 30.16 in1021.3 mb 0.00 in0.0 mm 0.00 in0.0 mm 0.00 in0.0 mm
10:42 PM 64.0°F17.8°C 56.3°F13.5°C 76% 2.0 mph SE3.2 kmh SE 3.8 mph6.1 kmh 30.16 in1021.3 mb 0.00 in0.0 mm 0.00 in0.0 mm 0.00 in0.0 mm
10:44 PM 63.7°F17.6°C 55.9°F13.3°C 76% 1.8 mph SE2.9 kmh SE 2.5 mph4.0 kmh 30.16 in1021.3 mb 0.00 in0.0 mm 0.00 in0.0 mm 0.00 in0.0 mm
10:46 PM 63.7°F17.6°C 55.9°F13.3°C 76% 2.0 mph SE3.2 kmh SE 2.5 mph4.0 kmh 30.16 in1021.3 mb 0.00 in0.0 mm 0.00 in0.0 mm 0.00 in0.0 mm
10:48 PM 63.7°F17.6°C 55.9°F13.3°C 76% 2.2 mph ESE3.5 kmh ESE 2.9 mph4.7 kmh 30.16 in1021.3 mb 0.00 in0.0 mm 0.00 in0.0 mm 0.00 in0.0 mm
10:50 PM 63.7°F17.6°C 55.9°F13.3°C 76% 2.2 mph SSE3.5 kmh SSE 3.1 mph5.0 kmh 30.16 in1021.3 mb 0.00 in0.0 mm 0.00 in0.0 mm 0.00 in0.0 mm
10:53 PM 63.7°F17.6°C 56.3°F13.5°C 77% 3.1 mph SE5.0 kmh SE 4.7 mph7.6 kmh 30.16 in1021.3 mb 0.00 in0.0 mm 0.00 in0.0 mm 0.00 in0.0 mm
10:55 PM 63.5°F17.5°C 56.1°F13.4°C 77% 3.4 mph SE5.5 kmh SE 4.0 mph6.4 kmh 30.16 in1021.3 mb 0.00 in0.0 mm 0.00 in0.0 mm 0.00 in0.0 mm
10:57 PM 63.3°F17.4°C 55.9°F13.3°C 77% 3.4 mph ESE5.5 kmh ESE 3.8 mph6.1 kmh 30.16 in1021.3 mb 0.00 in0.0 mm 0.00 in0.0 mm 0.00 in0.0 mm
11:00 PM 63.1°F17.3°C 55.8°F13.2°C 77% 3.1 mph SE5.0 kmh SE 3.6 mph5.8 kmh 30.16 in1021.3 mb 0.00 in0.0 mm 0.00 in0.0 mm 0.00 in0.0 mm
11:02 PM 63.1°F17.3°C 56.1°F13.4°C 78% 3.6 mph SE5.8 kmh SE 4.7 mph7.6 kmh 30.16 in1021.3 mb 0.00 in0.0 mm 0.00 in0.0 mm 0.00 in0.0 mm
11:04 PM 63.3°F17.4°C 56.3°F13.5°C 78% 4.7 mph ESE7.6 kmh ESE 6.3 mph10.1 kmh 30.16 in1021.3 mb 0.00 in0.0 mm 0.00 in0.0 mm 0.00 in0.0 mm
11:06 PM 63.1°F17.3°C 56.1°F13.4°C 78% 4.5 mph SE7.2 kmh SE 6.0 mph9.7 kmh 30.16 in1021.3 mb 0.00 in0.0 mm 0.00 in0.0 mm 0.00 in0.0 mm
11:09 PM 63.1°F17.3°C 56.1°F13.4°C 78% 3.4 mph ESE5.5 kmh ESE 3.6 mph5.8 kmh 30.16 in1021.3 mb 0.00 in0.0 mm 0.00 in0.0 mm 0.00 in0.0 mm
11:11 PM 63.0°F17.2°C 55.9°F13.3°C 78% 2.5 mph SE4.0 kmh SE 2.7 mph4.3 kmh 30.16 in1021.3 mb 0.00 in0.0 mm 0.00 in0.0 mm 0.00 in0.0 mm
11:13 PM 63.0°F17.2°C 55.6°F13.1°C 77% 1.8 mph SE2.9 kmh SE 1.8 mph2.9 kmh 30.16 in1021.3 mb 0.00 in0.0 mm 0.00 in0.0 mm 0.00 in0.0 mm
11:15 PM 62.8°F17.1°C 55.4°F13.0°C 77% 1.6 mph SSE2.6 kmh SSE 2.2 mph3.5 kmh 30.16 in1021.3 mb 0.00 in0.0 mm 0.00 in0.0 mm 0.00 in0.0 mm
11:18 PM 62.8°F17.1°C 55.4°F13.0°C 77% 1.3 mph SSE2.1 kmh SSE 2.2 mph3.5 kmh 30.16 in1021.3 mb 0.00 in0.0 mm 0.00 in0.0 mm 0.00 in0.0 mm
11:20 PM 62.8°F17.1°C 55.4°F13.0°C 77% 0.9 mph SE1.4 kmh SE 1.3 mph2.1 kmh 30.16 in1021.3 mb 0.00 in0.0 mm 0.00 in0.0 mm 0.00 in0.0 mm
11:22 PM 63.0°F17.2°C 55.6°F13.1°C 77% 1.1 mph ESE1.8 kmh ESE 2.2 mph3.5 kmh 30.16 in1021.3 mb 0.00 in0.0 mm 0.00 in0.0 mm 0.00 in0.0 mm
11:25 PM 63.1°F17.3°C 55.8°F13.2°C 77% 1.6 mph SE2.6 kmh SE 2.5 mph4.0 kmh 30.16 in1021.3 mb 0.00 in0.0 mm 0.00 in0.0 mm 0.00 in0.0 mm
11:27 PM 63.1°F17.3°C 55.4°F13.0°C 76% 1.3 mph SE2.1 kmh SE 2.2 mph3.5 kmh 30.16 in1021.3 mb 0.00 in0.0 mm 0.00 in0.0 mm 0.00 in0.0 mm
11:29 PM 63.1°F17.3°C 55.4°F13.0°C 76% 1.3 mph SSE2.1 kmh SSE 2.0 mph3.2 kmh 30.16 in1021.3 mb 0.00 in0.0 mm 0.00 in0.0 mm 0.00 in0.0 mm
11:31 PM 63.1°F17.3°C 55.4°F13.0°C 76% 2.0 mph ESE3.2 kmh ESE 3.1 mph5.0 kmh 30.16 in1021.3 mb 0.00 in0.0 mm 0.00 in0.0 mm 0.00 in0.0 mm
11:33 PM 63.1°F17.3°C 55.4°F13.0°C 76% 2.0 mph SE3.2 kmh SE 2.7 mph4.3 kmh 30.17 in1021.7 mb 0.00 in0.0 mm 0.00 in0.0 mm 0.00 in0.0 mm
11:36 PM 63.1°F17.3°C 55.0°F12.8°C 75% 1.1 mph ESE1.8 kmh ESE 1.6 mph2.6 kmh 30.17 in1021.7 mb 0.00 in0.0 mm 0.00 in0.0 mm 0.00 in0.0 mm
11:38 PM 63.1°F17.3°C 55.0°F12.8°C 75% 1.3 mph SE2.1 kmh SE 2.0 mph3.2 kmh 30.16 in1021.3 mb 0.00 in0.0 mm 0.00 in0.0 mm 0.00 in0.0 mm
11:40 PM 63.1°F17.3°C 55.0°F12.8°C 75% 1.8 mph SE2.9 kmh SE 3.1 mph5.0 kmh 30.16 in1021.3 mb 0.00 in0.0 mm 0.00 in0.0 mm 0.00 in0.0 mm
11:42 PM 63.1°F17.3°C 55.0°F12.8°C 75% 1.6 mph SE2.6 kmh SE 2.5 mph4.0 kmh 30.16 in1021.3 mb 0.00 in0.0 mm 0.00 in0.0 mm 0.00 in0.0 mm
11:44 PM 63.1°F17.3°C 55.0°F12.8°C 75% 0.7 mph SE1.1 kmh SE -- 30.16 in1021.3 mb 0.00 in0.0 mm 0.00 in0.0 mm 0.00 in0.0 mm
11:47 PM 63.1°F17.3°C 55.0°F12.8°C 75% 0.7 mph SE1.1 kmh SE 1.6 mph2.6 kmh 30.16 in1021.3 mb 0.00 in0.0 mm 0.00 in0.0 mm 0.00 in0.0 mm
11:49 PM 63.1°F17.3°C 54.7°F12.6°C 74% 1.1 mph SSE1.8 kmh SSE 2.0 mph3.2 kmh 30.16 in1021.3 mb 0.00 in0.0 mm 0.00 in0.0 mm 0.00 in0.0 mm
11:51 PM 63.1°F17.3°C 54.7°F12.6°C 74% 1.1 mph SE1.8 kmh SE 2.0 mph3.2 kmh 30.16 in1021.3 mb 0.00 in0.0 mm 0.00 in0.0 mm 0.00 in0.0 mm
11:53 PM 63.1°F17.3°C 54.7°F12.6°C 74% 1.3 mph S2.1 kmh S 2.7 mph4.3 kmh 30.16 in1021.3 mb 0.00 in0.0 mm 0.00 in0.0 mm 0.00 in0.0 mm
11:56 PM 63.0°F17.2°C 54.5°F12.5°C 74% 1.8 mph SE2.9 kmh SE 3.6 mph5.8 kmh 30.16 in1021.3 mb 0.00 in0.0 mm 0.00 in0.0 mm 0.00 in0.0 mm
11:58 PM 62.8°F17.1°C 54.3°F12.4°C 74% 2.5 mph SSE4.0 kmh SSE 4.5 mph7.2 kmh 30.16 in1021.3 mb 0.00 in0.0 mm 0.00 in0.0 mm 0.00 in0.0 mm